Time,TemperatureF,DewpointF,PressureIn,WindDirection,WindDirectionDegrees,WindSpeedMPH,WindSpeedGustMPH,Humidity,HourlyPrecipIn,Conditions,Clouds,dailyrainin,SoftwareType,DateUTC
2013-02-24 00:00:00,39.0,38.0,29.85,SW,233,0.0,0.0,96,0.00,,,0.15,Wunderground v.1.15,2013-02-24 05:00:00,
2013-02-24 00:02:00,38.9,37.9,29.85,SW,233,0.0,0.0,96,0.00,,,0.15,Wunderground v.1.15,2013-02-24 05:02:00,
2013-02-24 00:06:00,39.0,38.0,29.86,SW,233,0.0,0.0,96,0.00,,,0.15,Wunderground v.1.15,2013-02-24 05:06:00,
2013-02-24 00:08:00,39.0,38.0,29.86,SW,236,1.0,1.0,96,0.00,,,0.15,Wunderground v.1.15,2013-02-24 05:08:00,
2013-02-24 00:09:00,39.1,38.1,29.86,SW,236,0.0,1.0,96,0.00,,,0.15,Wunderground v.1.15,2013-02-24 05:09:00,
2013-02-24 00:11:00,39.2,38.2,29.86,West,269,2.0,2.0,96,0.00,,,0.15,Wunderground v.1.15,2013-02-24 05:11:00,
2013-02-24 00:15:00,39.4,38.0,29.86,West,270,1.0,2.0,96,0.00,,,0.15,weatherlink.com 1.10,2013-02-24 05:15:00,
2013-02-24 00:16:00,39.5,38.5,29.86,West,267,2.0,2.0,96,0.00,,,0.15,Wunderground v.1.15,2013-02-24 05:16:00,
2013-02-24 00:18:00,39.7,38.7,29.86,West,273,0.0,2.0,96,0.00,,,0.15,Wunderground v.1.15,2013-02-24 05:18:00,
2013-02-24 00:19:00,39.7,38.7,29.86,West,273,2.0,2.0,96,0.00,,,0.15,Wunderground v.1.15,2013-02-24 05:19:00,
2013-02-24 00:22:00,39.8,38.8,29.85,West,273,0.0,1.0,96,0.00,,,0.15,Wunderground v.1.15,2013-02-24 05:22:00,
2013-02-24 00:23:00,39.8,38.8,29.86,West,273,0.0,1.0,96,0.00,,,0.15,Wunderground v.1.15,2013-02-24 05:23:00,
2013-02-24 00:26:00,39.8,38.8,29.86,West,279,2.0,2.0,96,0.00,,,0.15,Wunderground v.1.15,2013-02-24 05:26:00,
2013-02-24 00:27:00,39.8,38.8,29.86,West,279,2.0,2.0,96,0.00,,,0.15,Wunderground v.1.15,2013-02-24 05:27:00,
2013-02-24 00:29:00,39.9,38.9,29.86,West,279,0.0,2.0,96,0.00,,,0.15,Wunderground v.1.15,2013-02-24 05:29:00,
2013-02-24 00:30:00,39.9,39.0,29.86,West,279,2.0,3.0,96,0.00,,,0.15,weatherlink.com 1.10,2013-02-24 05:30:00,
2013-02-24 00:32:00,40.0,39.0,29.86,West,279,1.0,1.0,96,0.00,,,0.15,Wunderground v.1.15,2013-02-24 05:32:00,
2013-02-24 00:36:00,40.2,39.2,29.86,West,274,1.0,1.0,96,0.00,,,0.15,Wunderground v.1.15,2013-02-24 05:36:00,
2013-02-24 00:37:00,40.2,39.2,29.86,West,274,0.0,1.0,96,0.00,,,0.15,Wunderground v.1.15,2013-02-24 05:37:00,
2013-02-24 00:40:00,40.3,39.3,29.86,West,274,1.0,1.0,96,0.00,,,0.15,Wunderground v.1.15,2013-02-24 05:40:00,
2013-02-24 00:41:00,40.3,39.3,29.86,West,274,1.0,1.0,96,0.00,,,0.15,Wunderground v.1.15,2013-02-24 05:41:00,
2013-02-24 00:44:00,40.3,39.3,29.85,West,259,2.0,2.0,96,0.00,,,0.15,Wunderground v.1.15,2013-02-24 05:44:00,
2013-02-24 00:45:00,40.3,39.3,29.86,West,261,1.0,2.0,96,0.00,,,0.15,Wunderground v.1.15,2013-02-24 05:45:00,
2013-02-24 00:46:00,40.3,39.3,29.86,West,279,4.0,4.0,96,0.00,,,0.15,Wunderground v.1.15,2013-02-24 05:46:00,
2013-02-24 00:50:00,40.5,39.4,29.86,WNW,287,2.0,3.0,96,0.00,,,0.15,Wunderground v.1.15,2013-02-24 05:50:00,
2013-02-24 00:51:00,40.5,39.4,29.86,WNW,294,2.0,3.0,96,0.00,,,0.15,Wunderground v.1.15,2013-02-24 05:51:00,
2013-02-24 00:52:00,40.5,39.4,29.86,WNW,294,0.0,3.0,96,0.00,,,0.15,Wunderground v.1.15,2013-02-24 05:52:00,
2013-02-24 00:54:00,40.3,39.0,29.86,NW,305,2.0,3.0,95,0.00,,,0.15,Wunderground v.1.15,2013-02-24 05:54:00,
2013-02-24 00:57:00,39.8,38.2,29.86,NW,311,3.0,3.0,94,0.00,,,0.15,Wunderground v.1.15,2013-02-24 05:57:00,
2013-02-24 00:58:00,39.6,38.0,29.86,NW,317,3.0,3.0,94,0.00,,,0.15,Wunderground v.1.15,2013-02-24 05:58:00,
2013-02-24 00:59:00,39.5,37.9,29.86,NW,306,3.0,3.0,94,0.00,,,0.15,Wunderground v.1.15,2013-02-24 05:59:00,
2013-02-24 01:00:00,39.5,38.2,29.86,NW,308,4.0,4.0,95,0.00,,,0.15,Wunderground v.1.15,2013-02-24 06:00:00,
2013-02-24 01:04:00,39.3,38.0,29.87,NW,311,2.0,4.0,95,0.00,,,0.15,Wunderground v.1.15,2013-02-24 06:04:00,
2013-02-24 01:05:00,39.3,38.0,29.87,WNW,285,5.0,5.0,95,0.00,,,0.15,Wunderground v.1.15,2013-02-24 06:05:00,
2013-02-24 01:06:00,39.3,38.0,29.87,WNW,286,4.0,5.0,95,0.00,,,0.15,Wunderground v.1.15,2013-02-24 06:06:00,
2013-02-24 01:07:00,39.3,38.0,29.87,NW,314,1.0,5.0,95,0.00,,,0.15,Wunderground v.1.15,2013-02-24 06:07:00,
2013-02-24 01:12:00,39.5,38.5,29.87,WNW,286,0.0,3.0,96,0.00,,,0.15,Wunderground v.1.15,2013-02-24 06:12:00,
2013-02-24 01:13:00,39.6,38.6,29.86,WNW,292,1.0,3.0,96,0.00,,,0.15,Wunderground v.1.15,2013-02-24 06:13:00,
2013-02-24 01:14:00,39.6,38.6,29.86,WNW,292,0.0,3.0,96,0.00,,,0.15,Wunderground v.1.15,2013-02-24 06:14:00,
2013-02-24 01:17:00,39.7,38.7,29.87,WNW,288,0.0,3.0,96,0.00,,,0.15,Wunderground v.1.15,2013-02-24 06:17:00,
2013-02-24 01:19:00,39.7,38.4,29.87,WNW,285,0.0,3.0,95,0.00,,,0.15,Wunderground v.1.15,2013-02-24 06:19:00,
2013-02-24 01:21:00,39.7,38.4,29.87,WNW,285,0.0,1.0,95,0.00,,,0.15,Wunderground v.1.15,2013-02-24 06:21:00,
2013-02-24 01:22:00,39.7,38.4,29.87,West,272,2.0,2.0,95,0.00,,,0.15,Wunderground v.1.15,2013-02-24 06:22:00,
2013-02-24 01:25:00,39.6,38.3,29.87,WSW,244,2.0,2.0,95,0.00,,,0.15,Wunderground v.1.15,2013-02-24 06:25:00,
2013-02-24 01:28:00,39.5,38.2,29.87,WSW,254,1.0,2.0,95,0.00,,,0.15,Wunderground v.1.15,2013-02-24 06:28:00,
2013-02-24 01:30:00,39.3,37.7,29.87,WNW,298,3.0,3.0,94,0.00,,,0.15,Wunderground v.1.15,2013-02-24 06:30:00,
2013-02-24 01:32:00,39.3,38.0,29.87,NW,311,4.0,4.0,95,0.00,,,0.15,Wunderground v.1.15,2013-02-24 06:32:00,
2013-02-24 01:34:00,39.3,38.0,29.87,WNW,298,3.0,4.0,95,0.00,,,0.15,Wunderground v.1.15,2013-02-24 06:34:00,
2013-02-24 01:35:00,39.4,38.1,29.87,WNW,300,3.0,4.0,95,0.00,,,0.15,Wunderground v.1.15,2013-02-24 06:35:00,
2013-02-24 01:38:00,39.5,38.2,29.87,WNW,296,3.0,4.0,95,0.00,,,0.15,Wunderground v.1.15,2013-02-24 06:38:00,
2013-02-24 01:39:00,39.5,38.2,29.87,WNW,288,2.0,4.0,95,0.00,,,0.15,Wunderground v.1.15,2013-02-24 06:39:00,
2013-02-24 01:43:00,39.7,38.4,29.87,NW,311,4.0,6.0,95,0.00,,,0.15,Wunderground v.1.15,2013-02-24 06:43:00,
2013-02-24 01:44:00,39.8,38.5,29.87,NW,314,3.0,6.0,95,0.00,,,0.15,Wunderground v.1.15,2013-02-24 06:44:00,
2013-02-24 01:46:00,40.1,38.8,29.87,WNW,295,3.0,6.0,95,0.00,,,0.15,Wunderground v.1.15,2013-02-24 06:46:00,
2013-02-24 01:49:00,40.4,39.1,29.87,WNW,300,4.0,6.0,95,0.00,,,0.15,Wunderground v.1.15,2013-02-24 06:49:00,
2013-02-24 01:51:00,40.5,39.2,29.87,WNW,297,4.0,6.0,95,0.00,,,0.15,Wunderground v.1.15,2013-02-24 06:51:00,
2013-02-24 01:54:00,40.7,39.4,29.87,WNW,287,3.0,6.0,95,0.00,,,0.15,Wunderground v.1.15,2013-02-24 06:54:00,
2013-02-24 01:56:00,40.9,39.3,29.87,NW,305,4.0,6.0,94,0.00,,,0.15,Wunderground v.1.15,2013-02-24 06:56:00,
2013-02-24 02:01:00,41.2,39.3,29.87,NW,307,5.0,8.0,93,0.00,,,0.15,Wunderground v.1.15,2013-02-24 07:01:00,
2013-02-24 02:06:00,41.5,39.3,29.86,NW,319,3.0,8.0,92,0.00,,,0.15,Wunderground v.1.15,2013-02-24 07:06:00,
2013-02-24 02:11:00,41.5,39.1,29.86,NW,317,2.0,4.0,91,0.00,,,0.15,Wunderground v.1.15,2013-02-24 07:11:00,
2013-02-24 02:16:00,41.3,38.9,29.86,WNW,297,2.0,6.0,91,0.00,,,0.15,Wunderground v.1.15,2013-02-24 07:16:00,
2013-02-24 02:17:00,41.2,38.8,29.86,WNW,301,3.0,6.0,91,0.00,,,0.15,Wunderground v.1.15,2013-02-24 07:17:00,
2013-02-24 02:21:00,41.0,38.6,29.86,WNW,289,3.0,4.0,91,0.00,,,0.15,Wunderground v.1.15,2013-02-24 07:21:00,
2013-02-24 02:22:00,40.9,38.5,29.86,WNW,300,3.0,4.0,91,0.00,,,0.15,Wunderground v.1.15,2013-02-24 07:22:00,
2013-02-24 02:27:00,40.7,38.3,29.86,NW,308,2.0,7.0,91,0.00,,,0.15,Wunderground v.1.15,2013-02-24 07:27:00,
2013-02-24 02:32:00,40.6,38.5,29.84,North,350,0.0,3.0,92,0.00,,,0.15,Wunderground v.1.15,2013-02-24 07:32:00,
2013-02-24 02:33:00,40.6,38.5,29.85,North,350,0.0,3.0,92,0.00,,,0.15,Wunderground v.1.15,2013-02-24 07:33:00,
2013-02-24 02:37:00,40.4,38.0,29.85,ENE,69,0.0,3.0,91,0.00,,,0.15,Wunderground v.1.15,2013-02-24 07:37:00,
2013-02-24 02:39:00,40.3,38.2,29.84,ENE,69,0.0,3.0,92,0.00,,,0.15,Wunderground v.1.15,2013-02-24 07:39:00,
2013-02-24 02:42:00,40.2,38.1,29.85,ENE,69,0.0,0.0,92,0.00,,,0.15,Wunderground v.1.15,2013-02-24 07:42:00,
2013-02-24 02:45:00,40.1,38.0,29.84,ENE,69,0.0,0.0,92,0.00,,,0.15,Wunderground v.1.15,2013-02-24 07:45:00,
2013-02-24 02:47:00,40.0,37.9,29.84,ENE,69,0.0,0.0,92,0.00,,,0.15,Wunderground v.1.15,2013-02-24 07:47:00,
2013-02-24 02:50:00,39.9,37.8,29.85,WNW,302,2.0,3.0,92,0.00,,,0.15,Wunderground v.1.15,2013-02-24 07:50:00,
2013-02-24 02:52:00,39.8,37.7,29.85,NW,304,2.0,3.0,92,0.00,,,0.15,Wunderground v.1.15,2013-02-24 07:52:00,
2013-02-24 02:53:00,39.8,37.7,29.85,NW,312,3.0,3.0,92,0.00,,,0.15,Wunderground v.1.15,2013-02-24 07:53:00,
2013-02-24 02:55:00,39.8,37.7,29.85,WNW,300,1.0,5.0,92,0.00,,,0.15,Wunderground v.1.15,2013-02-24 07:55:00,
2013-02-24 02:57:00,39.8,37.9,29.85,NW,304,1.0,5.0,93,0.00,,,0.15,Wunderground v.1.15,2013-02-24 07:57:00,
2013-02-24 02:58:00,39.8,37.9,29.85,NW,304,0.0,5.0,93,0.00,,,0.15,Wunderground v.1.15,2013-02-24 07:58:00,
2013-02-24 03:00:00,39.9,38.0,29.84,North,360,1.0,2.0,93,0.00,,,0.15,Wunderground v.1.15,2013-02-24 08:00:00,
2013-02-24 03:02:00,39.9,37.8,29.85,NW,311,3.0,3.0,92,0.00,,,0.15,Wunderground v.1.15,2013-02-24 08:02:00,
2013-02-24 03:03:00,39.9,37.8,29.85,NW,304,3.0,5.0,92,0.00,,,0.15,Wunderground v.1.15,2013-02-24 08:03:00,
2013-02-24 03:06:00,40.0,37.9,29.85,NW,304,0.0,5.0,92,0.00,,,0.15,Wunderground v.1.15,2013-02-24 08:06:00,
2013-02-24 03:07:00,40.0,37.6,29.85,NW,304,2.0,5.0,91,0.00,,,0.15,Wunderground v.1.15,2013-02-24 08:07:00,
2013-02-24 03:08:00,40.0,37.6,29.85,NW,304,3.0,5.0,91,0.00,,,0.15,Wunderground v.1.15,2013-02-24 08:08:00,
2013-02-24 03:11:00,39.9,37.5,29.85,WNW,300,4.0,6.0,91,0.00,,,0.15,Wunderground v.1.15,2013-02-24 08:11:00,
2013-02-24 03:12:00,39.9,37.5,29.86,WNW,292,5.0,6.0,91,0.00,,,0.15,Wunderground v.1.15,2013-02-24 08:12:00,
2013-02-24 03:14:00,39.8,37.1,29.86,WNW,297,5.0,7.0,90,0.00,,,0.15,Wunderground v.1.15,2013-02-24 08:14:00,
2013-02-24 03:16:00,39.8,37.1,29.86,WNW,302,4.0,7.0,90,0.00,,,0.15,Wunderground v.1.15,2013-02-24 08:16:00,
2013-02-24 03:18:00,39.7,37.0,29.86,NW,310,5.0,7.0,90,0.00,,,0.15,Wunderground v.1.15,2013-02-24 08:18:00,
2013-02-24 03:19:00,39.7,37.0,29.86,West,280,3.0,7.0,90,0.00,,,0.15,Wunderground v.1.15,2013-02-24 08:19:00,
2013-02-24 03:23:00,39.7,37.3,29.86,NW,315,2.0,4.0,91,0.00,,,0.15,Wunderground v.1.15,2013-02-24 08:23:00,
2013-02-24 03:24:00,39.7,37.3,29.86,WNW,303,3.0,5.0,91,0.00,,,0.15,Wunderground v.1.15,2013-02-24 08:24:00,
2013-02-24 03:28:00,40.0,37.3,29.86,WNW,291,2.0,5.0,90,0.00,,,0.15,Wunderground v.1.15,2013-02-24 08:28:00,
2013-02-24 03:30:00,40.1,37.1,29.86,WNW,296,1.0,3.0,89,0.00,,,0.15,Wunderground v.1.15,2013-02-24 08:30:00,
2013-02-24 03:31:00,40.1,37.1,29.86,WNW,296,1.0,3.0,89,0.00,,,0.15,Wunderground v.1.15,2013-02-24 08:31:00,
2013-02-24 03:33:00,40.1,37.1,29.86,West,275,2.0,3.0,89,0.00,,,0.15,Wunderground v.1.15,2013-02-24 08:33:00,
2013-02-24 03:34:00,40.1,37.1,29.86,West,268,1.0,3.0,89,0.00,,,0.15,Wunderground v.1.15,2013-02-24 08:34:00,
2013-02-24 03:35:00,40.1,37.1,29.85,WSW,241,2.0,3.0,89,0.00,,,0.15,Wunderground v.1.15,2013-02-24 08:35:00,
2013-02-24 03:36:00,40.1,37.1,29.85,West,269,1.0,4.0,89,0.00,,,0.15,Wunderground v.1.15,2013-02-24 08:36:00,
2013-02-24 03:39:00,40.1,37.1,29.85,NNE,30,1.0,4.0,89,0.00,,,0.15,Wunderground v.1.15,2013-02-24 08:39:00,
2013-02-24 03:40:00,40.1,37.1,29.85,North,360,1.0,2.0,89,0.00,,,0.15,Wunderground v.1.15,2013-02-24 08:40:00,
2013-02-24 03:42:00,40.1,37.1,29.85,North,355,1.0,2.0,89,0.00,,,0.15,Wunderground v.1.15,2013-02-24 08:42:00,
2013-02-24 03:44:00,40.1,37.1,29.85,WNW,296,1.0,4.0,89,0.00,,,0.15,Wunderground v.1.15,2013-02-24 08:44:00,
2013-02-24 03:45:00,40.1,37.1,29.85,WNW,296,1.0,4.0,89,0.00,,,0.15,Wunderground v.1.15,2013-02-24 08:45:00,
2013-02-24 03:47:00,40.0,36.7,29.86,WNW,296,1.0,4.0,88,0.00,,,0.15,Wunderground v.1.15,2013-02-24 08:47:00,
2013-02-24 03:49:00,39.9,36.9,29.86,WNW,297,0.0,4.0,89,0.00,,,0.15,Wunderground v.1.15,2013-02-24 08:49:00,
2013-02-24 03:50:00,39.8,36.8,29.86,WNW,297,0.0,1.0,89,0.00,,,0.15,Wunderground v.1.15,2013-02-24 08:50:00,
2013-02-24 03:53:00,39.7,36.7,29.86,WNW,293,1.0,5.0,89,0.00,,,0.15,Wunderground v.1.15,2013-02-24 08:53:00,
2013-02-24 03:54:00,39.6,36.6,29.86,NW,317,1.0,5.0,89,0.00,,,0.15,Wunderground v.1.15,2013-02-24 08:54:00,
2013-02-24 03:55:00,39.6,36.6,29.86,WNW,294,5.0,5.0,89,0.00,,,0.15,Wunderground v.1.15,2013-02-24 08:55:00,
2013-02-24 03:56:00,39.6,36.6,29.86,WNW,299,4.0,6.0,89,0.00,,,0.15,Wunderground v.1.15,2013-02-24 08:56:00,
2013-02-24 03:58:00,39.4,36.4,29.86,WNW,300,2.0,6.0,89,0.00,,,0.15,Wunderground v.1.15,2013-02-24 08:58:00,
2013-02-24 03:59:00,39.3,36.3,29.85,WNW,300,1.0,6.0,89,0.00,,,0.15,Wunderground v.1.15,2013-02-24 08:59:00,
2013-02-24 04:00:00,39.3,36.3,29.85,NW,321,6.0,8.0,89,0.00,,,0.15,Wunderground v.1.15,2013-02-24 09:00:00,
2013-02-24 04:02:00,39.2,36.5,29.85,NW,313,5.0,8.0,90,0.00,,,0.15,Wunderground v.1.15,2013-02-24 09:02:00,
2013-02-24 04:03:00,39.2,36.5,29.86,WNW,288,3.0,8.0,90,0.00,,,0.15,Wunderground v.1.15,2013-02-24 09:03:00,
2013-02-24 04:05:00,39.1,36.4,29.86,NW,304,0.0,8.0,90,0.00,,,0.15,Wunderground v.1.15,2013-02-24 09:05:00,
2013-02-24 04:06:00,39.1,36.4,29.86,WNW,302,1.0,8.0,90,0.00,,,0.15,Wunderground v.1.15,2013-02-24 09:06:00,
2013-02-24 04:07:00,39.0,36.3,29.86,NW,314,3.0,8.0,90,0.00,,,0.15,Wunderground v.1.15,2013-02-24 09:07:00,
2013-02-24 04:10:00,38.9,36.2,29.86,NW,321,0.0,3.0,90,0.00,,,0.15,Wunderground v.1.15,2013-02-24 09:10:00,
2013-02-24 04:11:00,38.9,36.2,29.86,NW,306,2.0,4.0,90,0.00,,,0.15,Wunderground v.1.15,2013-02-24 09:11:00,
2013-02-24 04:12:00,38.8,36.1,29.86,NW,305,3.0,4.0,90,0.00,,,0.15,Wunderground v.1.15,2013-02-24 09:12:00,
2013-02-24 04:15:00,38.6,35.9,29.86,West,279,3.0,5.0,90,0.00,,,0.15,Wunderground v.1.15,2013-02-24 09:15:00,
2013-02-24 04:16:00,38.6,35.9,29.86,NW,319,2.0,5.0,90,0.00,,,0.15,Wunderground v.1.15,2013-02-24 09:16:00,
2013-02-24 04:17:00,38.4,35.7,29.86,NNW,335,4.0,5.0,90,0.00,,,0.15,Wunderground v.1.15,2013-02-24 09:17:00,
2013-02-24 04:21:00,38.2,35.5,29.86,NW,308,4.0,5.0,90,0.00,,,0.15,Wunderground v.1.15,2013-02-24 09:21:00,
2013-02-24 04:22:00,38.1,35.4,29.86,NNW,333,4.0,5.0,90,0.00,,,0.15,Wunderground v.1.15,2013-02-24 09:22:00,
2013-02-24 04:23:00,38.0,35.3,29.86,NW,307,1.0,5.0,90,0.00,,,0.15,Wunderground v.1.15,2013-02-24 09:23:00,
2013-02-24 04:26:00,37.8,35.1,29.86,NNW,334,5.0,5.0,90,0.00,,,0.15,Wunderground v.1.15,2013-02-24 09:26:00,
2013-02-24 04:27:00,37.8,35.1,29.86,NW,321,2.0,5.0,90,0.00,,,0.15,Wunderground v.1.15,2013-02-24 09:27:00,
2013-02-24 04:28:00,37.7,35.0,29.86,NW,320,2.0,5.0,90,0.00,,,0.15,Wunderground v.1.15,2013-02-24 09:28:00,
2013-02-24 04:31:00,37.6,34.9,29.86,WNW,292,0.0,3.0,90,0.00,,,0.15,Wunderground v.1.15,2013-02-24 09:31:00,
2013-02-24 04:33:00,37.5,34.8,29.86,WNW,292,1.0,3.0,90,0.00,,,0.15,Wunderground v.1.15,2013-02-24 09:33:00,
2013-02-24 04:36:00,37.3,34.6,29.86,NW,317,2.0,3.0,90,0.00,,,0.15,Wunderground v.1.15,2013-02-24 09:36:00,
2013-02-24 04:38:00,37.3,34.9,29.86,NW,317,0.0,3.0,91,0.00,,,0.15,Wunderground v.1.15,2013-02-24 09:38:00,
2013-02-24 04:41:00,37.2,34.8,29.86,NW,317,4.0,5.0,91,0.00,,,0.15,Wunderground v.1.15,2013-02-24 09:41:00,
2013-02-24 04:43:00,37.1,34.7,29.86,WNW,300,2.0,5.0,91,0.00,,,0.15,Wunderground v.1.15,2013-02-24 09:43:00,
2013-02-24 04:46:00,37.1,34.7,29.86,NNW,333,0.0,5.0,91,0.00,,,0.15,Wunderground v.1.15,2013-02-24 09:46:00,
2013-02-24 04:47:00,37.1,34.7,29.86,NNW,333,1.0,5.0,91,0.00,,,0.15,Wunderground v.1.15,2013-02-24 09:47:00,
2013-02-24 04:48:00,37.1,34.7,29.86,NNW,333,0.0,5.0,91,0.00,,,0.15,Wunderground v.1.15,2013-02-24 09:48:00,
2013-02-24 04:49:00,37.0,34.6,29.86,NNE,28,1.0,5.0,91,0.00,,,0.15,Wunderground v.1.15,2013-02-24 09:49:00,
2013-02-24 04:52:00,37.0,34.6,29.86,NW,319,5.0,5.0,91,0.00,,,0.15,Wunderground v.1.15,2013-02-24 09:52:00,
2013-02-24 04:53:00,36.9,34.5,29.86,WNW,294,2.0,5.0,91,0.00,,,0.15,Wunderground v.1.15,2013-02-24 09:53:00,
2013-02-24 04:54:00,36.9,34.5,29.86,WNW,290,2.0,5.0,91,0.00,,,0.15,Wunderground v.1.15,2013-02-24 09:54:00,
2013-02-24 04:57:00,36.8,34.4,29.87,WNW,297,4.0,5.0,91,0.00,,,0.15,Wunderground v.1.15,2013-02-24 09:57:00,
2013-02-24 04:58:00,36.7,34.0,29.87,WNW,294,4.0,6.0,90,0.00,,,0.15,Wunderground v.1.15,2013-02-24 09:58:00,
2013-02-24 04:59:00,36.7,34.0,29.87,WNW,299,5.0,6.0,90,0.00,,,0.15,Wunderground v.1.15,2013-02-24 09:59:00,
2013-02-24 05:02:00,36.7,34.0,29.87,West,265,4.0,7.0,90,0.00,,,0.15,Wunderground v.1.15,2013-02-24 10:02:00,
2013-02-24 05:04:00,36.8,34.1,29.86,WNW,299,6.0,7.0,90,0.00,,,0.15,Wunderground v.1.15,2013-02-24 10:04:00,
2013-02-24 05:07:00,36.8,33.9,29.86,NW,308,1.0,7.0,89,0.00,,,0.15,Wunderground v.1.15,2013-02-24 10:07:00,
2013-02-24 05:08:00,36.9,34.0,29.87,NNW,331,5.0,7.0,89,0.00,,,0.15,Wunderground v.1.15,2013-02-24 10:08:00,
2013-02-24 05:09:00,36.9,34.0,29.87,WNW,303,2.0,7.0,89,0.00,,,0.15,Wunderground v.1.15,2013-02-24 10:09:00,
2013-02-24 05:13:00,36.9,34.0,29.87,NW,307,7.0,9.0,89,0.00,,,0.15,Wunderground v.1.15,2013-02-24 10:13:00,
2013-02-24 05:14:00,36.9,34.0,29.87,WNW,286,3.0,10.0,89,0.00,,,0.15,Wunderground v.1.15,2013-02-24 10:14:00,
2013-02-24 05:15:00,37.0,34.1,29.87,WNW,284,2.0,10.0,89,0.00,,,0.15,Wunderground v.1.15,2013-02-24 10:15:00,
2013-02-24 05:18:00,37.0,34.1,29.87,WNW,286,5.0,10.0,89,0.00,,,0.15,Wunderground v.1.15,2013-02-24 10:18:00,
2013-02-24 05:19:00,37.1,33.9,29.87,NW,308,3.0,10.0,88,0.00,,,0.15,Wunderground v.1.15,2013-02-24 10:19:00,
2013-02-24 05:20:00,37.1,33.9,29.87,West,273,3.0,6.0,88,0.00,,,0.15,Wunderground v.1.15,2013-02-24 10:20:00,
2013-02-24 05:23:00,37.2,34.0,29.87,WNW,290,7.0,10.0,88,0.00,,,0.15,Wunderground v.1.15,2013-02-24 10:23:00,
2013-02-24 05:24:00,37.2,34.0,29.87,West,278,2.0,10.0,88,0.00,,,0.15,Wunderground v.1.15,2013-02-24 10:24:00,
2013-02-24 05:25:00,37.2,34.0,29.87,NW,322,2.0,10.0,88,0.00,,,0.15,Wunderground v.1.15,2013-02-24 10:25:00,
2013-02-24 05:28:00,37.1,33.6,29.87,NW,308,10.0,10.0,87,0.00,,,0.15,Wunderground v.1.15,2013-02-24 10:28:00,
2013-02-24 05:29:00,37.1,33.6,29.87,WNW,290,5.0,10.0,87,0.00,,,0.15,Wunderground v.1.15,2013-02-24 10:29:00,
2013-02-24 05:30:00,37.1,33.6,29.87,WNW,284,10.0,10.0,87,0.00,,,0.15,Wunderground v.1.15,2013-02-24 10:30:00,
2013-02-24 05:31:00,37.1,33.3,29.87,WNW,296,6.0,10.0,86,0.00,,,0.15,Wunderground v.1.15,2013-02-24 10:31:00,
2013-02-24 05:34:00,37.1,33.3,29.88,WSW,248,4.0,10.0,86,0.00,,,0.15,Wunderground v.1.15,2013-02-24 10:34:00,
2013-02-24 05:35:00,37.1,33.0,29.88,West,273,4.0,10.0,85,0.00,,,0.15,Wunderground v.1.15,2013-02-24 10:35:00,
2013-02-24 05:36:00,37.1,33.0,29.88,WNW,302,2.0,10.0,85,0.00,,,0.15,Wunderground v.1.15,2013-02-24 10:36:00,
2013-02-24 05:39:00,37.2,32.8,29.88,WSW,257,5.0,10.0,84,0.00,,,0.15,Wunderground v.1.15,2013-02-24 10:39:00,
2013-02-24 05:41:00,37.1,32.7,29.88,WNW,299,4.0,5.0,84,0.00,,,0.15,Wunderground v.1.15,2013-02-24 10:41:00,
2013-02-24 05:44:00,37.1,32.4,29.88,West,277,2.0,6.0,83,0.00,,,0.15,Wunderground v.1.15,2013-02-24 10:44:00,
2013-02-24 05:46:00,37.1,32.1,29.88,WNW,291,1.0,6.0,82,0.00,,,0.15,Wunderground v.1.15,2013-02-24 10:46:00,
2013-02-24 05:48:00,37.1,32.1,29.89,WSW,245,3.0,6.0,82,0.00,,,0.15,Wunderground v.1.15,2013-02-24 10:48:00,
2013-02-24 05:49:00,37.1,32.1,29.88,SW,236,2.0,6.0,82,0.00,,,0.15,Wunderground v.1.15,2013-02-24 10:49:00,
2013-02-24 05:51:00,37.0,32.0,29.89,WSW,250,3.0,5.0,82,0.00,,,0.15,Wunderground v.1.15,2013-02-24 10:51:00,
2013-02-24 05:52:00,37.0,32.0,29.89,West,267,3.0,5.0,82,0.00,,,0.15,Wunderground v.1.15,2013-02-24 10:52:00,
2013-02-24 05:53:00,37.0,32.0,29.89,West,275,5.0,7.0,82,0.00,,,0.15,Wunderground v.1.15,2013-02-24 10:53:00,
2013-02-24 05:54:00,37.0,32.0,29.89,West,279,6.0,7.0,82,0.00,,,0.15,Wunderground v.1.15,2013-02-24 10:54:00,
2013-02-24 05:56:00,37.0,32.0,29.89,West,263,6.0,8.0,82,0.00,,,0.15,Wunderground v.1.15,2013-02-24 10:56:00,
2013-02-24 05:57:00,37.0,31.7,29.89,WSW,255,3.0,8.0,81,0.00,,,0.15,Wunderground v.1.15,2013-02-24 10:57:00,
2013-02-24 05:59:00,37.1,31.8,29.89,West,259,4.0,8.0,81,0.00,,,0.15,Wunderground v.1.15,2013-02-24 10:59:00,
2013-02-24 06:02:00,37.1,31.8,29.89,WNW,287,4.0,8.0,81,0.00,,,0.15,Wunderground v.1.15,2013-02-24 11:02:00,
2013-02-24 06:04:00,37.1,31.8,29.89,West,260,4.0,8.0,81,0.00,,,0.15,Wunderground v.1.15,2013-02-24 11:04:00,
2013-02-24 06:07:00,37.1,31.5,29.89,WSW,255,4.0,8.0,80,0.00,,,0.15,Wunderground v.1.15,2013-02-24 11:07:00,
2013-02-24 06:08:00,37.1,31.5,29.89,West,261,2.0,8.0,80,0.00,,,0.15,Wunderground v.1.15,2013-02-24 11:08:00,
2013-02-24 06:09:00,37.0,31.4,29.89,SW,223,6.0,8.0,80,0.00,,,0.15,Wunderground v.1.15,2013-02-24 11:09:00,
2013-02-24 06:12:00,37.0,31.4,29.89,West,267,4.0,8.0,80,0.00,,,0.15,Wunderground v.1.15,2013-02-24 11:12:00,
2013-02-24 06:13:00,37.0,31.4,29.89,West,266,3.0,8.0,80,0.00,,,0.15,Wunderground v.1.15,2013-02-24 11:13:00,
2013-02-24 06:14:00,36.9,31.6,29.90,West,261,3.0,8.0,81,0.00,,,0.15,Wunderground v.1.15,2013-02-24 11:14:00,
2013-02-24 06:17:00,36.9,31.3,29.90,West,266,6.0,11.0,80,0.00,,,0.15,Wunderground v.1.15,2013-02-24 11:17:00,
2013-02-24 06:18:00,36.9,31.3,29.90,West,271,2.0,11.0,80,0.00,,,0.15,Wunderground v.1.15,2013-02-24 11:18:00,
2013-02-24 06:20:00,36.8,31.2,29.91,West,262,5.0,5.0,80,0.00,,,0.15,Wunderground v.1.15,2013-02-24 11:20:00,
2013-02-24 06:22:00,36.8,31.2,29.91,West,263,5.0,7.0,80,0.00,,,0.15,Wunderground v.1.15,2013-02-24 11:22:00,
2013-02-24 06:24:00,36.7,31.1,29.91,WNW,299,3.0,7.0,80,0.00,,,0.15,Wunderground v.1.15,2013-02-24 11:24:00,
2013-02-24 06:25:00,36.7,31.1,29.91,West,267,6.0,7.0,80,0.00,,,0.15,Wunderground v.1.15,2013-02-24 11:25:00,
2013-02-24 06:27:00,36.6,31.0,29.91,West,259,2.0,7.0,80,0.00,,,0.15,Wunderground v.1.15,2013-02-24 11:27:00,
2013-02-24 06:28:00,36.6,31.0,29.91,WSW,256,2.0,7.0,80,0.00,,,0.15,Wunderground v.1.15,2013-02-24 11:28:00,
2013-02-24 06:29:00,36.6,31.0,29.91,West,281,3.0,7.0,80,0.00,,,0.15,Wunderground v.1.15,2013-02-24 11:29:00,
2013-02-24 06:30:00,36.5,30.9,29.91,WNW,295,4.0,4.0,80,0.00,,,0.15,Wunderground v.1.15,2013-02-24 11:30:00,
2013-02-24 06:33:00,36.6,31.0,29.90,WNW,291,1.0,4.0,80,0.00,,,0.15,Wunderground v.1.15,2013-02-24 11:33:00,
2013-02-24 06:34:00,36.5,30.9,29.90,WNW,288,2.0,4.0,80,0.00,,,0.15,Wunderground v.1.15,2013-02-24 11:34:00,
2013-02-24 06:36:00,36.5,30.9,29.90,WNW,287,7.0,11.0,80,0.00,,,0.15,Wunderground v.1.15,2013-02-24 11:36:00,
2013-02-24 06:38:00,36.4,30.8,29.90,WNW,295,6.0,11.0,80,0.00,,,0.15,Wunderground v.1.15,2013-02-24 11:38:00,
2013-02-24 06:39:00,36.3,30.7,29.90,WNW,296,2.0,11.0,80,0.00,,,0.15,Wunderground v.1.15,2013-02-24 11:39:00,
2013-02-24 06:41:00,36.2,30.6,29.90,West,279,6.0,10.0,80,0.00,,,0.15,Wunderground v.1.15,2013-02-24 11:41:00,
2013-02-24 06:43:00,36.2,30.6,29.90,West,263,7.0,10.0,80,0.00,,,0.15,Wunderground v.1.15,2013-02-24 11:43:00,
2013-02-24 06:44:00,36.2,30.6,29.90,NNW,346,2.0,10.0,80,0.00,,,0.15,Wunderground v.1.15,2013-02-24 11:44:00,
2013-02-24 06:46:00,36.1,30.8,29.90,West,281,6.0,10.0,81,0.00,,,0.15,Wunderground v.1.15,2013-02-24 11:46:00,
2013-02-24 06:48:00,36.0,30.4,29.90,WNW,294,6.0,10.0,80,0.00,,,0.15,Wunderground v.1.15,2013-02-24 11:48:00,
2013-02-24 06:49:00,36.0,30.4,29.90,WNW,282,5.0,10.0,80,0.00,,,0.15,Wunderground v.1.15,2013-02-24 11:49:00,
2013-02-24 06:52:00,36.0,30.4,29.91,WSW,254,8.0,8.0,80,0.00,,,0.15,Wunderground v.1.15,2013-02-24 11:52:00,
2013-02-24 06:53:00,35.9,30.3,29.91,West,281,4.0,10.0,80,0.00,,,0.15,Wunderground v.1.15,2013-02-24 11:53:00,
2013-02-24 06:54:00,35.9,30.3,29.91,WNW,302,3.0,10.0,80,0.00,,,0.15,Wunderground v.1.15,2013-02-24 11:54:00,
2013-02-24 06:57:00,35.9,30.6,29.92,WSW,245,3.0,10.0,81,0.00,,,0.15,Wunderground v.1.15,2013-02-24 11:57:00,
2013-02-24 06:58:00,35.8,30.5,29.92,West,275,2.0,10.0,81,0.00,,,0.15,Wunderground v.1.15,2013-02-24 11:58:00,
2013-02-24 07:00:00,35.8,30.5,29.92,WNW,296,3.0,4.0,81,0.00,,,0.15,Wunderground v.1.15,2013-02-24 12:00:00,
2013-02-24 07:02:00,35.8,30.5,29.92,WNW,288,5.0,8.0,81,0.00,,,0.15,Wunderground v.1.15,2013-02-24 12:02:00,
2013-02-24 07:03:00,35.7,30.4,29.92,WNW,283,3.0,8.0,81,0.00,,,0.15,Wunderground v.1.15,2013-02-24 12:03:00,
2013-02-24 07:05:00,35.7,30.4,29.92,West,279,5.0,8.0,81,0.00,,,0.15,Wunderground v.1.15,2013-02-24 12:05:00,
2013-02-24 07:07:00,35.6,30.3,29.92,WSW,253,6.0,12.0,81,0.00,,,0.15,Wunderground v.1.15,2013-02-24 12:07:00,
2013-02-24 07:08:00,35.5,30.2,29.92,West,277,2.0,12.0,81,0.00,,,0.15,Wunderground v.1.15,2013-02-24 12:08:00,
2013-02-24 07:10:00,35.5,30.2,29.92,West,259,2.0,5.0,81,0.00,,,0.15,Wunderground v.1.15,2013-02-24 12:10:00,
2013-02-24 07:12:00,35.5,30.2,29.92,West,279,3.0,6.0,81,0.00,,,0.15,Wunderground v.1.15,2013-02-24 12:12:00,
2013-02-24 07:13:00,35.5,30.2,29.92,WSW,257,2.0,6.0,81,0.00,,,0.15,Wunderground v.1.15,2013-02-24 12:13:00,
2013-02-24 07:15:00,35.4,30.1,29.92,West,261,4.0,6.0,81,0.00,,,0.15,Wunderground v.1.15,2013-02-24 12:15:00,
2013-02-24 07:16:00,35.4,30.1,29.92,West,280,5.0,7.0,81,0.00,,,0.15,Wunderground v.1.15,2013-02-24 12:16:00,
2013-02-24 07:17:00,35.4,30.1,29.92,West,260,5.0,7.0,81,0.00,,,0.15,Wunderground v.1.15,2013-02-24 12:17:00,
2013-02-24 07:18:00,35.4,30.1,29.92,WSW,240,4.0,7.0,81,0.00,,,0.15,Wunderground v.1.15,2013-02-24 12:18:00,
2013-02-24 07:21:00,35.4,30.1,29.92,WNW,294,5.0,6.0,81,0.00,,,0.15,Wunderground v.1.15,2013-02-24 12:21:00,
2013-02-24 07:23:00,35.3,30.1,29.92,WNW,290,4.0,7.0,81,0.00,,,0.15,Wunderground v.1.15,2013-02-24 12:23:00,
2013-02-24 07:26:00,35.3,30.4,29.93,WNW,289,5.0,7.0,82,0.00,,,0.15,Wunderground v.1.15,2013-02-24 12:26:00,
2013-02-24 07:27:00,35.3,30.4,29.93,West,273,8.0,9.0,82,0.00,,,0.15,Wunderground v.1.15,2013-02-24 12:27:00,
2013-02-24 07:28:00,35.3,30.4,29.93,WSW,255,5.0,9.0,82,0.00,,,0.15,Wunderground v.1.15,2013-02-24 12:28:00,
2013-02-24 07:32:00,35.3,30.4,29.93,WNW,298,3.0,9.0,82,0.00,,,0.15,Wunderground v.1.15,2013-02-24 12:32:00,
2013-02-24 07:33:00,35.3,30.4,29.93,WNW,294,8.0,9.0,82,0.00,,,0.15,Wunderground v.1.15,2013-02-24 12:33:00,
2013-02-24 07:34:00,35.3,30.4,29.93,WSW,242,6.0,9.0,82,0.00,,,0.15,Wunderground v.1.15,2013-02-24 12:34:00,
2013-02-24 07:37:00,35.4,30.1,29.93,WNW,293,3.0,11.0,81,0.00,,,0.15,Wunderground v.1.15,2013-02-24 12:37:00,
2013-02-24 07:38:00,35.5,30.2,29.93,NW,315,2.0,11.0,81,0.00,,,0.15,Wunderground v.1.15,2013-02-24 12:38:00,
2013-02-24 07:39:00,35.5,30.2,29.94,WNW,300,6.0,11.0,81,0.00,,,0.15,Wunderground v.1.15,2013-02-24 12:39:00,
2013-02-24 07:40:00,35.5,30.2,29.94,NW,304,5.0,5.0,81,0.00,,,0.15,Wunderground v.1.15,2013-02-24 12:40:00,
2013-02-24 07:43:00,35.6,30.3,29.94,West,278,6.0,7.0,81,0.00,,,0.15,Wunderground v.1.15,2013-02-24 12:43:00,
2013-02-24 07:44:00,35.7,30.1,29.94,West,270,6.0,10.0,80,0.00,,,0.15,Wunderground v.1.15,2013-02-24 12:44:00,
2013-02-24 07:46:00,35.7,29.8,29.94,WNW,301,8.0,10.0,79,0.00,,,0.15,Wunderground v.1.15,2013-02-24 12:46:00,
2013-02-24 07:48:00,35.9,30.0,29.94,WNW,301,7.0,10.0,79,0.00,,,0.15,Wunderground v.1.15,2013-02-24 12:48:00,
2013-02-24 07:49:00,35.9,30.0,29.94,WSW,238,4.0,10.0,79,0.00,,,0.15,Wunderground v.1.15,2013-02-24 12:49:00,
2013-02-24 07:51:00,35.9,30.0,29.94,WNW,298,7.0,7.0,79,0.00,,,0.15,Wunderground v.1.15,2013-02-24 12:51:00,
2013-02-24 07:53:00,35.9,30.0,29.94,NW,308,7.0,13.0,79,0.00,,,0.15,Wunderground v.1.15,2013-02-24 12:53:00,
2013-02-24 07:54:00,35.9,30.0,29.94,West,278,9.0,13.0,79,0.00,,,0.15,Wunderground v.1.15,2013-02-24 12:54:00,
2013-02-24 07:56:00,36.0,29.8,29.94,West,277,6.0,13.0,78,0.00,,,0.15,Wunderground v.1.15,2013-02-24 12:56:00,
2013-02-24 07:58:00,36.0,29.8,29.94,WSW,245,8.0,13.0,78,0.00,,,0.15,Wunderground v.1.15,2013-02-24 12:58:00,
2013-02-24 08:00:00,36.0,29.8,29.94,WNW,284,7.0,7.0,78,0.00,,,0.15,Wunderground v.1.15,2013-02-24 13:00:00,
2013-02-24 08:01:00,36.1,29.9,29.94,West,271,8.0,10.0,78,0.00,,,0.15,Wunderground v.1.15,2013-02-24 13:01:00,
2013-02-24 08:03:00,36.1,29.9,29.94,WNW,284,6.0,11.0,78,0.00,,,0.15,Wunderground v.1.15,2013-02-24 13:03:00,
2013-02-24 08:05:00,36.1,29.9,29.95,WNW,295,5.0,11.0,78,0.00,,,0.15,Wunderground v.1.15,2013-02-24 13:05:00,
2013-02-24 08:06:00,36.2,30.0,29.95,West,269,9.0,11.0,78,0.00,,,0.15,Wunderground v.1.15,2013-02-24 13:06:00,
2013-02-24 08:09:00,36.3,29.8,29.95,West,280,7.0,11.0,77,0.00,,,0.15,Wunderground v.1.15,2013-02-24 13:09:00,
2013-02-24 08:10:00,36.3,29.8,29.95,WNW,294,11.0,15.0,77,0.00,,,0.15,Wunderground v.1.15,2013-02-24 13:10:00,
2013-02-24 08:11:00,36.3,29.8,29.95,WNW,284,6.0,15.0,77,0.00,,,0.15,Wunderground v.1.15,2013-02-24 13:11:00,
2013-02-24 08:14:00,36.4,29.6,29.95,NW,305,8.0,17.0,76,0.00,,,0.15,Wunderground v.1.15,2013-02-24 13:14:00,
2013-02-24 08:15:00,36.4,29.0,29.95,WNW,301,8.0,17.0,75,0.00,,,0.15,weatherlink.com 1.10,2013-02-24 13:15:00,
2013-02-24 08:16:00,36.5,29.7,29.96,NW,306,6.0,17.0,76,0.00,,,0.15,Wunderground v.1.15,2013-02-24 13:16:00,
2013-02-24 08:17:00,36.5,29.7,29.96,North,350,6.0,17.0,76,0.00,,,0.15,Wunderground v.1.15,2013-02-24 13:17:00,
2013-02-24 08:20:00,36.6,29.4,29.96,West,278,4.0,9.0,75,0.00,,,0.15,Wunderground v.1.15,2013-02-24 13:20:00,
2013-02-24 08:21:00,36.7,29.5,29.96,WNW,289,4.0,10.0,75,0.00,,,0.15,Wunderground v.1.15,2013-02-24 13:21:00,
2013-02-24 08:22:00,36.7,29.5,29.96,NW,304,3.0,10.0,75,0.00,,,0.15,Wunderground v.1.15,2013-02-24 13:22:00,
2013-02-24 08:25:00,36.9,29.7,29.96,NW,323,5.0,10.0,75,0.00,,,0.15,Wunderground v.1.15,2013-02-24 13:25:00,
2013-02-24 08:26:00,36.9,29.4,29.96,NNW,333,9.0,10.0,74,0.00,,,0.15,Wunderground v.1.15,2013-02-24 13:26:00,
2013-02-24 08:27:00,36.9,29.4,29.96,NW,308,19.0,20.0,74,0.00,,,0.15,Wunderground v.1.15,2013-02-24 13:27:00,
2013-02-24 08:31:00,37.0,29.5,29.96,WNW,295,7.0,12.0,74,0.00,,,0.15,Wunderground v.1.15,2013-02-24 13:31:00,
2013-02-24 08:32:00,37.0,29.5,29.96,WNW,299,3.0,12.0,74,0.00,,,0.15,Wunderground v.1.15,2013-02-24 13:32:00,
2013-02-24 08:33:00,37.1,29.6,29.96,WNW,292,8.0,12.0,74,0.00,,,0.15,Wunderground v.1.15,2013-02-24 13:33:00,
2013-02-24 08:36:00,37.2,29.7,29.96,West,281,6.0,13.0,74,0.00,,,0.15,Wunderground v.1.15,2013-02-24 13:36:00,
2013-02-24 08:38:00,37.3,29.8,29.96,West,265,11.0,13.0,74,0.00,,,0.15,Wunderground v.1.15,2013-02-24 13:38:00,
2013-02-24 08:41:00,37.5,30.0,29.96,WNW,292,5.0,9.0,74,0.00,,,0.15,Wunderground v.1.15,2013-02-24 13:41:00,
2013-02-24 08:42:00,37.5,29.3,29.96,NW,305,10.0,14.0,72,0.00,,,0.15,Wunderground v.1.15,2013-02-24 13:42:00,
2013-02-24 08:43:00,37.5,29.3,29.96,WNW,298,6.0,14.0,72,0.00,,,0.15,Wunderground v.1.15,2013-02-24 13:43:00,
2013-02-24 08:46:00,37.6,29.4,29.96,West,266,6.0,14.0,72,0.00,,,0.15,Wunderground v.1.15,2013-02-24 13:46:00,
2013-02-24 08:48:00,37.6,29.0,29.96,NNW,333,7.0,14.0,71,0.00,,,0.15,Wunderground v.1.15,2013-02-24 13:48:00,
2013-02-24 08:51:00,37.7,29.8,29.95,WNW,290,6.0,10.0,73,0.00,,,0.15,Wunderground v.1.15,2013-02-24 13:51:00,
2013-02-24 08:53:00,37.8,29.2,29.95,WNW,302,8.0,15.0,71,0.00,,,0.15,Wunderground v.1.15,2013-02-24 13:53:00,
2013-02-24 08:56:00,37.8,29.2,29.95,WNW,299,6.0,15.0,71,0.00,,,0.15,Wunderground v.1.15,2013-02-24 13:56:00,
2013-02-24 08:58:00,37.9,29.7,29.95,NW,311,9.0,15.0,72,0.00,,,0.15,Wunderground v.1.15,2013-02-24 13:58:00,
2013-02-24 08:59:00,37.9,29.3,29.95,NW,304,7.0,15.0,71,0.00,,,0.15,Wunderground v.1.15,2013-02-24 13:59:00,
2013-02-24 09:01:00,38.0,29.8,29.95,WNW,296,6.0,12.0,72,0.00,,,0.15,Wunderground v.1.15,2013-02-24 14:01:00,
2013-02-24 09:03:00,38.1,29.5,29.95,NW,306,10.0,13.0,71,0.00,,,0.15,Wunderground v.1.15,2013-02-24 14:03:00,
2013-02-24 09:04:00,38.1,29.5,29.95,NNW,335,7.0,13.0,71,0.00,,,0.15,Wunderground v.1.15,2013-02-24 14:04:00,
2013-02-24 09:06:00,38.2,29.6,29.95,NW,313,11.0,15.0,71,0.00,,,0.15,Wunderground v.1.15,2013-02-24 14:06:00,
2013-02-24 09:09:00,38.2,28.9,29.94,WNW,284,11.0,22.0,69,0.00,,,0.15,Wunderground v.1.15,2013-02-24 14:09:00,
2013-02-24 09:12:00,38.2,28.9,29.95,West,266,5.0,12.0,69,0.00,,,0.15,Wunderground v.1.15,2013-02-24 14:12:00,
2013-02-24 09:14:00,38.3,29.0,29.95,WNW,296,9.0,12.0,69,0.00,,,0.15,Wunderground v.1.15,2013-02-24 14:14:00,
2013-02-24 09:15:00,38.4,29.1,29.95,WNW,290,11.0,12.0,69,0.00,,,0.15,Wunderground v.1.15,2013-02-24 14:15:00,
2013-02-24 09:17:00,38.6,29.7,29.95,West,273,9.0,13.0,70,0.00,,,0.15,Wunderground v.1.15,2013-02-24 14:17:00,
2013-02-24 09:19:00,38.6,28.2,29.96,NNW,331,8.0,15.0,66,0.00,,,0.15,Wunderground v.1.15,2013-02-24 14:19:00,
2013-02-24 09:20:00,38.6,28.2,29.96,WNW,302,7.0,10.0,66,0.00,,,0.15,Wunderground v.1.15,2013-02-24 14:20:00,
2013-02-24 09:22:00,38.6,28.2,29.96,WNW,300,13.0,16.0,66,0.00,,,0.15,Wunderground v.1.15,2013-02-24 14:22:00,
2013-02-24 09:24:00,38.6,27.5,29.96,NW,322,9.0,23.0,64,0.00,,,0.15,Wunderground v.1.15,2013-02-24 14:24:00,
2013-02-24 09:25:00,38.6,27.5,29.96,NW,323,18.0,23.0,64,0.00,,,0.15,Wunderground v.1.15,2013-02-24 14:25:00,
2013-02-24 09:26:00,38.6,27.1,29.96,NW,311,9.0,23.0,63,0.00,,,0.15,Wunderground v.1.15,2013-02-24 14:26:00,
2013-02-24 09:27:00,38.6,27.1,29.96,NW,319,3.0,23.0,63,0.00,,,0.15,Wunderground v.1.15,2013-02-24 14:27:00,
2013-02-24 09:29:00,38.7,27.2,29.95,West,275,7.0,23.0,63,0.00,,,0.15,Wunderground v.1.15,2013-02-24 14:29:00,
2013-02-24 09:30:00,38.7,27.2,29.95,WNW,302,14.0,14.0,63,0.00,,,0.15,Wunderground v.1.15,2013-02-24 14:30:00,
2013-02-24 09:31:00,38.7,26.8,29.96,West,281,13.0,19.0,62,0.00,,,0.15,Wunderground v.1.15,2013-02-24 14:31:00,
2013-02-24 09:32:00,38.6,26.7,29.95,NW,324,8.0,19.0,62,0.00,,,0.15,Wunderground v.1.15,2013-02-24 14:32:00,
2013-02-24 09:35:00,38.7,27.2,29.96,West,273,6.0,19.0,63,0.00,,,0.15,Wunderground v.1.15,2013-02-24 14:35:00,
2013-02-24 09:36:00,38.7,26.8,29.96,WSW,253,8.0,19.0,62,0.00,,,0.15,Wunderground v.1.15,2013-02-24 14:36:00,
2013-02-24 09:37:00,38.7,27.2,29.96,WNW,296,9.0,19.0,63,0.00,,,0.15,Wunderground v.1.15,2013-02-24 14:37:00,
2013-02-24 09:40:00,38.9,27.8,29.96,WSW,257,9.0,9.0,64,0.00,,,0.15,Wunderground v.1.15,2013-02-24 14:40:00,
2013-02-24 09:41:00,38.9,27.0,29.96,WNW,292,8.0,13.0,62,0.00,,,0.15,Wunderground v.1.15,2013-02-24 14:41:00,
2013-02-24 09:42:00,39.0,27.1,29.96,WNW,291,7.0,15.0,62,0.00,,,0.15,Wunderground v.1.15,2013-02-24 14:42:00,
2013-02-24 09:45:00,38.9,26.6,29.96,West,267,12.0,17.0,61,0.00,,,0.15,Wunderground v.1.15,2013-02-24 14:45:00,
2013-02-24 09:47:00,38.9,27.0,29.95,WNW,298,7.0,17.0,62,0.00,,,0.15,Wunderground v.1.15,2013-02-24 14:47:00,
2013-02-24 09:48:00,38.9,27.0,29.96,West,272,6.0,17.0,62,0.00,,,0.15,Wunderground v.1.15,2013-02-24 14:48:00,
2013-02-24 09:50:00,39.1,27.6,29.96,WNW,283,8.0,11.0,63,0.00,,,0.15,Wunderground v.1.15,2013-02-24 14:50:00,
2013-02-24 09:51:00,39.1,27.6,29.96,WNW,296,4.0,11.0,63,0.00,,,0.15,Wunderground v.1.15,2013-02-24 14:51:00,
2013-02-24 09:52:00,39.2,27.7,29.96,NNW,335,10.0,15.0,63,0.00,,,0.15,Wunderground v.1.15,2013-02-24 14:52:00,
2013-02-24 09:53:00,39.2,27.7,29.96,West,277,6.0,15.0,63,0.00,,,0.15,Wunderground v.1.15,2013-02-24 14:53:00,
2013-02-24 09:56:00,39.2,27.3,29.95,WNW,287,7.0,15.0,62,0.00,,,0.15,Wunderground v.1.15,2013-02-24 14:56:00,
2013-02-24 09:57:00,39.1,27.2,29.95,WSW,241,5.0,15.0,62,0.00,,,0.15,Wunderground v.1.15,2013-02-24 14:57:00,
2013-02-24 09:58:00,39.1,27.2,29.95,WNW,296,7.0,15.0,62,0.00,,,0.15,Wunderground v.1.15,2013-02-24 14:58:00,
2013-02-24 10:01:00,39.2,27.7,29.96,WNW,300,9.0,10.0,63,0.00,,,0.00,Wunderground v.1.15,2013-02-24 15:01:00,
2013-02-24 10:02:00,38.6,27.8,29.96,WSW,244,9.0,16.0,65,0.00,,,0.00,Wunderground v.1.15,2013-02-24 15:02:00,
2013-02-24 10:03:00,38.7,27.6,29.96,WNW,303,6.0,16.0,64,0.00,,,0.00,Wunderground v.1.15,2013-02-24 15:03:00,
2013-02-24 10:06:00,38.9,27.8,29.96,North,350,4.0,16.0,64,0.00,,,0.00,Wunderground v.1.15,2013-02-24 15:06:00,
2013-02-24 10:08:00,39.0,27.1,29.96,NNW,332,6.0,16.0,62,0.00,,,0.00,Wunderground v.1.15,2013-02-24 15:08:00,
2013-02-24 10:11:00,38.9,27.0,29.96,NNW,334,9.0,15.0,62,0.00,,,0.00,Wunderground v.1.15,2013-02-24 15:11:00,
2013-02-24 10:12:00,38.8,26.5,29.96,West,281,7.0,17.0,61,0.00,,,0.00,Wunderground v.1.15,2013-02-24 15:12:00,
2013-02-24 10:13:00,38.7,26.8,29.96,WNW,301,13.0,17.0,62,0.00,,,0.00,Wunderground v.1.15,2013-02-24 15:13:00,
2013-02-24 10:16:00,38.8,27.3,29.96,West,275,12.0,19.0,63,0.00,,,0.00,Wunderground v.1.15,2013-02-24 15:16:00,
2013-02-24 10:17:00,38.8,26.9,29.96,WNW,302,12.0,19.0,62,0.00,,,0.00,Wunderground v.1.15,2013-02-24 15:17:00,
2013-02-24 10:18:00,38.8,26.9,29.96,NNE,14,9.0,19.0,62,0.00,,,0.00,Wunderground v.1.15,2013-02-24 15:18:00,
2013-02-24 10:19:00,38.8,26.5,29.96,WNW,300,10.0,19.0,61,0.00,,,0.00,Wunderground v.1.15,2013-02-24 15:19:00,
2013-02-24 10:22:00,39.0,26.7,29.96,NNW,327,10.0,17.0,61,0.00,,,0.00,Wunderground v.1.15,2013-02-24 15:22:00,
2013-02-24 10:23:00,39.0,27.5,29.96,NW,306,7.0,17.0,63,0.00,,,0.00,Wunderground v.1.15,2013-02-24 15:23:00,
2013-02-24 10:24:00,39.1,26.8,29.96,NW,306,8.0,17.0,61,0.00,,,0.00,Wunderground v.1.15,2013-02-24 15:24:00,
2013-02-24 10:27:00,39.4,27.1,29.96,WNW,294,7.0,18.0,61,0.00,,,0.00,Wunderground v.1.15,2013-02-24 15:27:00,
2013-02-24 10:28:00,39.4,27.5,29.96,NNE,19,6.0,18.0,62,0.00,,,0.00,Wunderground v.1.15,2013-02-24 15:28:00,
2013-02-24 10:29:00,39.5,27.2,29.96,NW,319,11.0,18.0,61,0.00,,,0.00,Wunderground v.1.15,2013-02-24 15:29:00,
2013-02-24 10:32:00,39.7,26.9,29.96,WSW,240,7.0,19.0,60,0.00,,,0.00,Wunderground v.1.15,2013-02-24 15:32:00,
2013-02-24 10:33:00,39.7,26.5,29.96,WNW,294,10.0,19.0,59,0.00,,,0.00,Wunderground v.1.15,2013-02-24 15:33:00,
2013-02-24 10:34:00,39.7,26.9,29.96,WNW,302,9.0,19.0,60,0.00,,,0.00,Wunderground v.1.15,2013-02-24 15:34:00,
2013-02-24 10:35:00,39.7,26.5,29.96,NW,307,18.0,19.0,59,0.00,,,0.00,Wunderground v.1.15,2013-02-24 15:35:00,
2013-02-24 10:38:00,39.7,26.9,29.96,WNW,294,10.0,19.0,60,0.00,,,0.00,Wunderground v.1.15,2013-02-24 15:38:00,
2013-02-24 10:39:00,39.7,26.9,29.96,NW,306,7.0,19.0,60,0.00,,,0.00,Wunderground v.1.15,2013-02-24 15:39:00,
2013-02-24 10:40:00,39.8,27.0,29.96,WNW,286,6.0,14.0,60,0.00,,,0.00,Wunderground v.1.15,2013-02-24 15:40:00,
2013-02-24 10:43:00,40.0,27.2,29.96,WNW,286,7.0,14.0,60,0.00,,,0.00,Wunderground v.1.15,2013-02-24 15:43:00,
2013-02-24 10:44:00,40.0,27.2,29.96,WNW,302,6.0,14.0,60,0.00,,,0.00,Wunderground v.1.15,2013-02-24 15:44:00,
2013-02-24 10:46:00,40.2,27.4,29.96,NW,317,11.0,14.0,60,0.00,,,0.00,Wunderground v.1.15,2013-02-24 15:46:00,
2013-02-24 10:49:00,40.3,26.7,29.97,West,259,17.0,17.0,58,0.00,,,0.00,Wunderground v.1.15,2013-02-24 15:49:00,
2013-02-24 10:50:00,40.3,27.1,29.97,WSW,254,9.0,12.0,59,0.00,,,0.00,Wunderground v.1.15,2013-02-24 15:50:00,
2013-02-24 10:51:00,40.4,27.2,29.97,WNW,285,5.0,12.0,59,0.00,,,0.00,Wunderground v.1.15,2013-02-24 15:51:00,
2013-02-24 10:54:00,40.4,26.8,29.97,NW,313,2.0,15.0,58,0.00,,,0.00,Wunderground v.1.15,2013-02-24 15:54:00,
2013-02-24 10:55:00,40.3,26.7,29.97,WNW,296,7.0,15.0,58,0.00,,,0.00,Wunderground v.1.15,2013-02-24 15:55:00,
2013-02-24 10:56:00,40.4,26.8,29.97,WNW,284,7.0,15.0,58,0.00,,,0.00,Wunderground v.1.15,2013-02-24 15:56:00,
2013-02-24 10:59:00,40.4,26.4,29.97,WNW,286,7.0,15.0,57,0.00,,,0.00,Wunderground v.1.15,2013-02-24 15:59:00,
2013-02-24 11:00:00,40.4,26.4,29.97,WSW,254,7.0,11.0,57,0.00,,,0.00,Wunderground v.1.15,2013-02-24 16:00:00,
2013-02-24 11:01:00,40.4,26.4,29.97,WNW,292,7.0,12.0,57,0.00,,,0.00,Wunderground v.1.15,2013-02-24 16:01:00,
2013-02-24 11:04:00,40.5,26.9,29.96,WNW,286,4.0,13.0,58,0.00,,,0.00,Wunderground v.1.15,2013-02-24 16:04:00,
2013-02-24 11:05:00,40.5,26.4,29.96,NW,317,9.0,13.0,57,0.00,,,0.00,Wunderground v.1.15,2013-02-24 16:05:00,
2013-02-24 11:06:00,40.6,26.5,29.96,NW,316,10.0,13.0,57,0.00,,,0.00,Wunderground v.1.15,2013-02-24 16:06:00,
2013-02-24 11:09:00,40.8,27.6,29.96,WNW,298,8.0,13.0,59,0.00,,,0.00,Wunderground v.1.15,2013-02-24 16:09:00,
2013-02-24 11:10:00,40.8,27.2,29.96,NW,325,9.0,9.0,58,0.00,,,0.00,Wunderground v.1.15,2013-02-24 16:10:00,
2013-02-24 11:11:00,41.0,27.3,29.97,WNW,290,15.0,17.0,58,0.00,,,0.00,Wunderground v.1.15,2013-02-24 16:11:00,
2013-02-24 11:15:00,40.9,26.0,29.96,WNW,295,12.0,20.0,55,0.00,,,0.00,Wunderground v.1.15,2013-02-24 16:15:00,
2013-02-24 11:16:00,40.9,26.0,29.96,WNW,301,8.0,20.0,55,0.00,,,0.00,Wunderground v.1.15,2013-02-24 16:16:00,
2013-02-24 11:20:00,40.7,26.2,29.96,NW,314,5.0,10.0,56,0.00,,,0.00,Wunderground v.1.15,2013-02-24 16:20:00,
2013-02-24 11:21:00,40.9,26.8,29.96,WNW,291,8.0,10.0,57,0.00,,,0.00,Wunderground v.1.15,2013-02-24 16:21:00,
2013-02-24 11:25:00,41.3,26.8,29.96,NW,313,7.0,11.0,56,0.00,,,0.00,Wunderground v.1.15,2013-02-24 16:25:00,
2013-02-24 11:26:00,41.3,26.8,29.96,NW,318,5.0,11.0,56,0.00,,,0.00,Wunderground v.1.15,2013-02-24 16:26:00,
2013-02-24 11:29:00,41.6,26.6,29.96,WNW,288,9.0,16.0,55,0.00,,,0.00,Wunderground v.1.15,2013-02-24 16:29:00,
2013-02-24 11:30:00,41.6,27.1,29.96,WNW,296,5.0,7.0,56,0.00,,,0.00,Wunderground v.1.15,2013-02-24 16:30:00,
2013-02-24 11:31:00,41.6,27.1,29.96,WNW,294,5.0,7.0,56,0.00,,,0.00,Wunderground v.1.15,2013-02-24 16:31:00,
2013-02-24 11:34:00,42.0,27.4,29.96,NW,313,8.0,14.0,56,0.00,,,0.00,Wunderground v.1.15,2013-02-24 16:34:00,
2013-02-24 11:35:00,42.0,27.4,29.96,NW,324,6.0,14.0,56,0.00,,,0.00,Wunderground v.1.15,2013-02-24 16:35:00,
2013-02-24 11:36:00,42.1,27.5,29.96,WNW,284,2.0,14.0,56,0.00,,,0.00,Wunderground v.1.15,2013-02-24 16:36:00,
2013-02-24 11:40:00,42.3,26.4,29.96,NW,306,11.0,14.0,53,0.00,,,0.00,Wunderground v.1.15,2013-02-24 16:40:00,
2013-02-24 11:41:00,42.3,26.4,29.96,NW,304,10.0,14.0,53,0.00,,,0.00,Wunderground v.1.15,2013-02-24 16:41:00,
2013-02-24 11:45:00,42.7,27.2,29.96,WNW,297,2.0,14.0,54,0.00,,,0.00,Wunderground v.1.15,2013-02-24 16:45:00,
2013-02-24 11:46:00,42.8,27.3,29.96,NNW,346,6.0,14.0,54,0.00,,,0.00,Wunderground v.1.15,2013-02-24 16:46:00,
2013-02-24 11:47:00,42.8,26.4,29.96,NW,312,7.0,14.0,52,0.00,,,0.00,Wunderground v.1.15,2013-02-24 16:47:00,
2013-02-24 11:51:00,43.1,26.7,29.96,WNW,285,3.0,7.0,52,0.00,,,0.00,Wunderground v.1.15,2013-02-24 16:51:00,
2013-02-24 11:52:00,43.2,26.3,29.96,North,355,4.0,10.0,51,0.00,,,0.00,Wunderground v.1.15,2013-02-24 16:52:00,
2013-02-24 11:56:00,43.1,26.2,29.96,WNW,291,9.0,13.0,51,0.00,,,0.00,Wunderground v.1.15,2013-02-24 16:56:00,
2013-02-24 11:57:00,43.2,26.3,29.96,NW,305,4.0,13.0,51,0.00,,,0.00,Wunderground v.1.15,2013-02-24 16:57:00,
2013-02-24 12:01:00,43.2,25.3,29.96,NW,315,9.0,16.0,49,0.00,,,0.00,Wunderground v.1.15,2013-02-24 17:01:00,
2013-02-24 12:02:00,43.1,25.2,29.96,WNW,302,8.0,16.0,49,0.00,,,0.00,Wunderground v.1.15,2013-02-24 17:02:00,
2013-02-24 12:06:00,43.2,26.3,29.95,WNW,302,8.0,17.0,51,0.00,,,0.00,Wunderground v.1.15,2013-02-24 17:06:00,
2013-02-24 12:07:00,43.2,26.3,29.95,WNW,287,10.0,17.0,51,0.00,,,0.00,Wunderground v.1.15,2013-02-24 17:07:00,
2013-02-24 12:08:00,43.3,25.9,29.96,NW,318,10.0,17.0,50,0.00,,,0.00,Wunderground v.1.15,2013-02-24 17:08:00,
2013-02-24 12:11:00,43.4,26.0,29.95,West,277,11.0,17.0,51,0.00,,,0.00,weatherlink.com 1.10,2013-02-24 17:11:00,
2013-02-24 12:12:00,43.4,26.0,29.95,NW,325,11.0,15.0,50,0.00,,,0.00,Wunderground v.1.15,2013-02-24 17:12:00,
2013-02-24 12:13:00,43.6,25.7,29.95,NW,325,11.0,16.0,49,0.00,,,0.00,Wunderground v.1.15,2013-02-24 17:13:00,
2013-02-24 12:17:00,43.7,25.8,29.95,WNW,297,11.0,17.0,49,0.00,,,0.00,Wunderground v.1.15,2013-02-24 17:17:00,
2013-02-24 12:18:00,43.8,24.9,29.95,WNW,284,7.0,17.0,47,0.00,,,0.00,Wunderground v.1.15,2013-02-24 17:18:00,
2013-02-24 12:22:00,44.0,25.0,29.95,NW,304,10.0,14.0,47,0.00,,,0.00,Wunderground v.1.15,2013-02-24 17:22:00,
2013-02-24 12:23:00,44.0,25.0,29.95,NW,304,8.0,14.0,47,0.00,,,0.00,Wunderground v.1.15,2013-02-24 17:23:00,
2013-02-24 12:27:00,44.1,24.6,29.95,WNW,282,16.0,16.0,46,0.00,,,0.00,Wunderground v.1.15,2013-02-24 17:27:00,
2013-02-24 12:28:00,44.1,24.6,29.95,West,276,17.0,17.0,46,0.00,,,0.00,Wunderground v.1.15,2013-02-24 17:28:00,
2013-02-24 12:33:00,44.0,24.5,29.96,WNW,282,9.0,21.0,46,0.00,,,0.00,Wunderground v.1.15,2013-02-24 17:33:00,
2013-02-24 12:38:00,44.2,24.7,29.95,WNW,289,11.0,21.0,46,0.00,,,0.00,Wunderground v.1.15,2013-02-24 17:38:00,
2013-02-24 12:39:00,44.2,24.7,29.95,NW,308,13.0,21.0,46,0.00,,,0.00,Wunderground v.1.15,2013-02-24 17:39:00,
2013-02-24 12:43:00,44.2,24.2,29.95,WNW,302,8.0,19.0,45,0.00,,,0.00,Wunderground v.1.15,2013-02-24 17:43:00,
2013-02-24 12:44:00,44.2,24.2,29.95,NW,309,8.0,19.0,45,0.00,,,0.00,Wunderground v.1.15,2013-02-24 17:44:00,
2013-02-24 12:48:00,44.6,24.0,29.95,NW,318,12.0,19.0,44,0.00,,,0.00,Wunderground v.1.15,2013-02-24 17:48:00,
2013-02-24 12:49:00,44.6,24.0,29.95,NW,307,13.0,19.0,44,0.00,,,0.00,Wunderground v.1.15,2013-02-24 17:49:00,
2013-02-24 12:50:00,44.7,23.5,29.95,NNE,28,9.0,9.0,43,0.00,,,0.00,Wunderground v.1.15,2013-02-24 17:50:00,
2013-02-24 12:54:00,44.8,24.2,29.94,North,355,5.0,19.0,44,0.00,,,0.00,Wunderground v.1.15,2013-02-24 17:54:00,
2013-02-24 12:55:00,44.8,24.2,29.94,WNW,294,9.0,19.0,44,0.00,,,0.00,Wunderground v.1.15,2013-02-24 17:55:00,
2013-02-24 12:59:00,45.0,24.4,29.94,West,266,9.0,19.0,44,0.00,,,0.00,Wunderground v.1.15,2013-02-24 17:59:00,
2013-02-24 13:01:00,45.0,23.8,29.94,West,270,7.0,13.0,43,0.00,,,0.00,Wunderground v.1.15,2013-02-24 18:01:00,
2013-02-24 13:04:00,45.0,23.8,29.94,West,279,11.0,15.0,43,0.00,,,0.00,Wunderground v.1.15,2013-02-24 18:04:00,
2013-02-24 13:05:00,45.0,24.4,29.94,West,281,8.0,16.0,44,0.00,,,0.00,Wunderground v.1.15,2013-02-24 18:05:00,
2013-02-24 13:06:00,45.1,24.5,29.94,NW,304,9.0,16.0,44,0.00,,,0.00,Wunderground v.1.15,2013-02-24 18:06:00,
2013-02-24 13:09:00,45.3,24.6,29.94,WNW,297,9.0,16.0,44,0.00,,,0.00,Wunderground v.1.15,2013-02-24 18:09:00,
2013-02-24 13:10:00,45.5,24.8,29.94,West,281,5.0,10.0,44,0.00,,,0.00,Wunderground v.1.15,2013-02-24 18:10:00,
2013-02-24 13:11:00,45.6,24.4,29.94,WNW,289,8.0,10.0,43,0.00,,,0.00,Wunderground v.1.15,2013-02-24 18:11:00,
2013-02-24 13:14:00,45.9,25.2,29.94,WNW,301,12.0,17.0,44,0.00,,,0.00,Wunderground v.1.15,2013-02-24 18:14:00,
2013-02-24 13:15:00,46.0,24.7,29.94,WNW,290,10.0,17.0,43,0.00,,,0.00,Wunderground v.1.15,2013-02-24 18:15:00,
2013-02-24 13:16:00,46.1,25.4,29.94,NW,321,7.0,17.0,44,0.00,,,0.00,Wunderground v.1.15,2013-02-24 18:16:00,
2013-02-24 13:20:00,46.3,24.4,29.94,WNW,298,13.0,13.0,42,0.00,,,0.00,Wunderground v.1.15,2013-02-24 18:20:00,
2013-02-24 13:21:00,46.4,25.6,29.94,WSW,255,8.0,13.0,44,0.00,,,0.00,Wunderground v.1.15,2013-02-24 18:21:00,
2013-02-24 13:25:00,46.5,25.2,29.94,WNW,288,10.0,18.0,43,0.00,,,0.00,Wunderground v.1.15,2013-02-24 18:25:00,
2013-02-24 13:26:00,46.5,24.6,29.94,WNW,291,8.0,18.0,42,0.00,,,0.00,Wunderground v.1.15,2013-02-24 18:26:00,
2013-02-24 13:31:00,46.6,24.7,29.94,West,279,7.0,13.0,42,0.00,,,0.00,Wunderground v.1.15,2013-02-24 18:31:00,
2013-02-24 13:32:00,46.6,25.3,29.94,NW,309,10.0,13.0,43,0.00,,,0.00,Wunderground v.1.15,2013-02-24 18:32:00,
2013-02-24 13:36:00,46.8,24.9,29.93,WNW,298,11.0,17.0,42,0.00,,,0.00,Wunderground v.1.15,2013-02-24 18:36:00,
2013-02-24 13:39:00,46.8,25.5,29.94,West,280,5.0,17.0,43,0.00,,,0.00,Wunderground v.1.15,2013-02-24 18:39:00,
2013-02-24 13:41:00,47.0,25.1,29.93,WNW,300,4.0,8.0,42,0.00,,,0.00,Wunderground v.1.15,2013-02-24 18:41:00,
2013-02-24 13:44:00,47.3,24.2,29.94,WNW,292,11.0,15.0,40,0.00,,,0.00,Wunderground v.1.15,2013-02-24 18:44:00,
2013-02-24 13:45:00,47.2,24.1,29.94,NW,306,6.0,15.0,40,0.00,,,0.00,Wunderground v.1.15,2013-02-24 18:45:00,
2013-02-24 13:46:00,47.3,24.8,29.93,WNW,284,13.0,16.0,41,0.00,,,0.00,Wunderground v.1.15,2013-02-24 18:46:00,
2013-02-24 13:47:00,47.3,25.3,29.93,WNW,287,11.0,16.0,42,0.00,,,0.00,Wunderground v.1.15,2013-02-24 18:47:00,
2013-02-24 13:49:00,47.4,24.9,29.93,WSW,253,8.0,17.0,41,0.00,,,0.00,Wunderground v.1.15,2013-02-24 18:49:00,
2013-02-24 13:50:00,47.4,23.7,29.93,WNW,291,9.0,9.0,39,0.00,,,0.00,Wunderground v.1.15,2013-02-24 18:50:00,
2013-02-24 13:52:00,47.3,24.8,29.93,WNW,295,10.0,11.0,41,0.00,,,0.00,Wunderground v.1.15,2013-02-24 18:52:00,
2013-02-24 13:53:00,47.3,24.8,29.93,WNW,294,10.0,13.0,41,0.00,,,0.00,Wunderground v.1.15,2013-02-24 18:53:00,
2013-02-24 13:54:00,47.4,24.9,29.93,WNW,295,10.0,14.0,41,0.00,,,0.00,Wunderground v.1.15,2013-02-24 18:54:00,
2013-02-24 13:55:00,47.5,24.3,29.93,WNW,297,8.0,16.0,40,0.00,,,0.00,Wunderground v.1.15,2013-02-24 18:55:00,
2013-02-24 13:57:00,47.5,24.3,29.93,NNW,344,12.0,16.0,40,0.00,,,0.00,Wunderground v.1.15,2013-02-24 18:57:00,
2013-02-24 13:58:00,47.5,24.3,29.93,NW,309,15.0,17.0,40,0.00,,,0.00,Wunderground v.1.15,2013-02-24 18:58:00,
2013-02-24 13:59:00,47.3,24.2,29.93,NNW,342,12.0,17.0,40,0.00,,,0.00,Wunderground v.1.15,2013-02-24 18:59:00,
2013-02-24 14:01:00,47.1,24.0,29.93,West,274,12.0,16.0,40,0.00,,,0.00,Wunderground v.1.15,2013-02-24 19:01:00,
2013-02-24 14:03:00,47.0,23.9,29.93,NW,316,12.0,16.0,40,0.00,,,0.00,Wunderground v.1.15,2013-02-24 19:03:00,
2013-02-24 14:05:00,47.1,24.6,29.93,NW,309,12.0,16.0,41,0.00,,,0.00,Wunderground v.1.15,2013-02-24 19:05:00,
2013-02-24 14:06:00,47.1,24.0,29.94,NW,314,13.0,16.0,40,0.00,,,0.00,Wunderground v.1.15,2013-02-24 19:06:00,
2013-02-24 14:08:00,47.0,23.9,29.94,NW,306,12.0,20.0,40,0.00,,,0.00,Wunderground v.1.15,2013-02-24 19:08:00,
2013-02-24 14:09:00,47.0,23.9,29.94,NW,307,9.0,20.0,40,0.00,,,0.00,Wunderground v.1.15,2013-02-24 19:09:00,
2013-02-24 14:10:00,47.0,23.9,29.94,WNW,295,8.0,11.0,40,0.00,,,0.00,Wunderground v.1.15,2013-02-24 19:10:00,
2013-02-24 14:11:00,47.0,23.9,29.94,WNW,287,11.0,15.0,40,0.00,,,0.00,Wunderground v.1.15,2013-02-24 19:11:00,
2013-02-24 14:14:00,47.0,23.3,29.94,WNW,286,3.0,15.0,39,0.00,,,0.00,Wunderground v.1.15,2013-02-24 19:14:00,
2013-02-24 14:15:00,47.0,23.9,29.94,WNW,303,13.0,15.0,40,0.00,,,0.00,Wunderground v.1.15,2013-02-24 19:15:00,
2013-02-24 14:16:00,47.1,24.0,29.94,NNW,327,8.0,15.0,40,0.00,,,0.00,Wunderground v.1.15,2013-02-24 19:16:00,
2013-02-24 14:19:00,47.3,24.2,29.94,WNW,288,8.0,15.0,40,0.00,,,0.00,Wunderground v.1.15,2013-02-24 19:19:00,
2013-02-24 14:20:00,47.4,24.3,29.94,West,267,7.0,9.0,40,0.00,,,0.00,Wunderground v.1.15,2013-02-24 19:20:00,
2013-02-24 14:22:00,47.5,23.7,29.94,WNW,303,9.0,9.0,39,0.00,,,0.00,Wunderground v.1.15,2013-02-24 19:22:00,
2013-02-24 14:24:00,47.5,23.7,29.94,NW,310,9.0,14.0,39,0.00,,,0.00,Wunderground v.1.15,2013-02-24 19:24:00,
2013-02-24 14:25:00,47.5,23.7,29.94,WNW,298,9.0,16.0,39,0.00,,,0.00,Wunderground v.1.15,2013-02-24 19:25:00,
2013-02-24 14:27:00,47.5,23.7,29.94,WNW,294,7.0,16.0,39,0.00,,,0.00,Wunderground v.1.15,2013-02-24 19:27:00,
2013-02-24 14:29:00,47.4,23.7,29.94,WNW,290,5.0,18.0,39,0.00,,,0.00,Wunderground v.1.15,2013-02-24 19:29:00,
2013-02-24 14:30:00,47.4,23.7,29.94,WNW,291,10.0,11.0,39,0.00,,,0.00,Wunderground v.1.15,2013-02-24 19:30:00,
2013-02-24 14:32:00,47.5,23.7,29.94,West,261,4.0,11.0,39,0.00,,,0.00,Wunderground v.1.15,2013-02-24 19:32:00,
2013-02-24 14:34:00,47.8,24.0,29.94,NNW,332,9.0,11.0,39,0.00,,,0.00,Wunderground v.1.15,2013-02-24 19:34:00,
2013-02-24 14:35:00,47.8,23.4,29.94,West,281,13.0,17.0,38,0.00,,,0.00,Wunderground v.1.15,2013-02-24 19:35:00,
2013-02-24 14:36:00,47.8,23.4,29.94,West,281,6.0,17.0,38,0.00,,,0.00,Wunderground v.1.15,2013-02-24 19:36:00,
2013-02-24 14:37:00,47.8,23.4,29.94,WNW,298,11.0,17.0,38,0.00,,,0.00,Wunderground v.1.15,2013-02-24 19:37:00,
2013-02-24 14:39:00,47.8,22.8,29.94,NW,313,10.0,17.0,37,0.00,,,0.00,Wunderground v.1.15,2013-02-24 19:39:00,
2013-02-24 14:41:00,47.8,23.4,29.94,West,259,7.0,12.0,38,0.00,,,0.00,Wunderground v.1.15,2013-02-24 19:41:00,
2013-02-24 14:42:00,48.0,24.2,29.94,WNW,298,5.0,13.0,39,0.00,,,0.00,Wunderground v.1.15,2013-02-24 19:42:00,
2013-02-24 14:45:00,48.2,23.1,29.94,NW,313,6.0,13.0,37,0.00,,,0.00,Wunderground v.1.15,2013-02-24 19:45:00,
2013-02-24 14:46:00,48.2,23.1,29.94,WNW,296,7.0,13.0,37,0.00,,,0.00,Wunderground v.1.15,2013-02-24 19:46:00,
2013-02-24 14:49:00,48.2,23.1,29.94,NW,322,5.0,15.0,37,0.00,,,0.00,Wunderground v.1.15,2013-02-24 19:49:00,
2013-02-24 14:50:00,48.2,23.1,29.94,NW,326,13.0,13.0,37,0.00,,,0.00,Wunderground v.1.15,2013-02-24 19:50:00,
2013-02-24 14:51:00,48.2,22.5,29.94,WNW,290,5.0,13.0,36,0.00,,,0.00,Wunderground v.1.15,2013-02-24 19:51:00,
2013-02-24 14:52:00,48.2,23.1,29.94,North,355,11.0,13.0,37,0.00,,,0.00,Wunderground v.1.15,2013-02-24 19:52:00,
2013-02-24 14:54:00,48.1,23.0,29.94,WNW,292,12.0,16.0,37,0.00,,,0.00,Wunderground v.1.15,2013-02-24 19:54:00,
2013-02-24 14:55:00,48.1,23.0,29.94,NNW,340,5.0,16.0,37,0.00,,,0.00,Wunderground v.1.15,2013-02-24 19:55:00,
2013-02-24 14:56:00,48.1,23.7,29.94,NW,309,10.0,16.0,38,0.00,,,0.00,Wunderground v.1.15,2013-02-24 19:56:00,
2013-02-24 14:57:00,48.1,23.0,29.94,NW,309,10.0,16.0,37,0.00,,,0.00,Wunderground v.1.15,2013-02-24 19:57:00,
2013-02-24 14:59:00,48.1,23.0,29.94,NNW,339,8.0,16.0,37,0.00,,,0.00,Wunderground v.1.15,2013-02-24 19:59:00,
2013-02-24 15:00:00,48.1,23.0,29.94,NW,306,11.0,14.0,37,0.00,,,0.00,Wunderground v.1.15,2013-02-24 20:00:00,
2013-02-24 15:02:00,48.1,23.0,29.94,WNW,298,8.0,14.0,37,0.00,,,0.00,Wunderground v.1.15,2013-02-24 20:02:00,
2013-02-24 15:03:00,48.1,23.0,29.94,WNW,290,7.0,14.0,37,0.00,,,0.00,Wunderground v.1.15,2013-02-24 20:03:00,
2013-02-24 15:04:00,48.2,23.7,29.94,WSW,254,8.0,14.0,38,0.00,,,0.00,Wunderground v.1.15,2013-02-24 20:04:00,
2013-02-24 15:06:00,48.3,23.2,29.94,NW,315,1.0,14.0,37,0.00,,,0.00,Wunderground v.1.15,2013-02-24 20:06:00,
2013-02-24 15:07:00,48.5,23.4,29.94,WNW,299,5.0,14.0,37,0.00,,,0.00,Wunderground v.1.15,2013-02-24 20:07:00,
2013-02-24 15:09:00,48.6,23.5,29.94,WNW,290,5.0,14.0,37,0.00,,,0.00,Wunderground v.1.15,2013-02-24 20:09:00,
2013-02-24 15:10:00,48.7,23.6,29.94,NNW,329,12.0,12.0,37,0.00,,,0.00,Wunderground v.1.15,2013-02-24 20:10:00,
2013-02-24 15:12:00,48.6,23.5,29.94,NW,306,11.0,15.0,37,0.00,,,0.00,Wunderground v.1.15,2013-02-24 20:12:00,
2013-02-24 15:14:00,48.3,22.5,29.94,West,278,6.0,15.0,36,0.00,,,0.00,Wunderground v.1.15,2013-02-24 20:14:00,
2013-02-24 15:15:00,48.3,23.2,29.94,WNW,295,10.0,15.0,37,0.00,,,0.00,Wunderground v.1.15,2013-02-24 20:15:00,
2013-02-24 15:17:00,48.4,23.3,29.94,NW,306,7.0,15.0,37,0.00,,,0.00,Wunderground v.1.15,2013-02-24 20:17:00,
2013-02-24 15:20:00,48.5,22.7,29.94,WSW,250,10.0,10.0,36,0.00,,,0.00,Wunderground v.1.15,2013-02-24 20:20:00,
2013-02-24 15:22:00,48.3,22.5,29.94,WNW,292,10.0,19.0,36,0.00,,,0.00,Wunderground v.1.15,2013-02-24 20:22:00,
2013-02-24 15:23:00,48.3,22.5,29.94,WNW,296,11.0,19.0,36,0.00,,,0.00,Wunderground v.1.15,2013-02-24 20:23:00,
2013-02-24 15:25:00,48.3,22.5,29.95,West,264,16.0,19.0,36,0.00,,,0.00,Wunderground v.1.15,2013-02-24 20:25:00,
2013-02-24 15:26:00,48.2,22.5,29.95,NW,317,10.0,19.0,36,0.00,,,0.00,Wunderground v.1.15,2013-02-24 20:26:00,
2013-02-24 15:28:00,48.1,21.7,29.95,NW,309,5.0,19.0,35,0.00,,,0.00,Wunderground v.1.15,2013-02-24 20:28:00,
2013-02-24 15:30:00,48.1,22.4,29.95,WNW,303,7.0,9.0,36,0.00,,,0.00,Wunderground v.1.15,2013-02-24 20:30:00,
2013-02-24 15:31:00,48.1,22.4,29.95,West,264,8.0,15.0,36,0.00,,,0.00,Wunderground v.1.15,2013-02-24 20:31:00,
2013-02-24 15:33:00,48.1,22.4,29.95,West,271,12.0,15.0,36,0.00,,,0.00,Wunderground v.1.15,2013-02-24 20:33:00,
2013-02-24 15:35:00,48.1,22.4,29.95,NW,315,8.0,15.0,36,0.00,,,0.00,Wunderground v.1.15,2013-02-24 20:35:00,
2013-02-24 15:36:00,48.1,22.4,29.95,WNW,285,10.0,15.0,36,0.00,,,0.00,Wunderground v.1.15,2013-02-24 20:36:00,
2013-02-24 15:38:00,48.2,22.5,29.95,NNW,327,4.0,15.0,36,0.00,,,0.00,Wunderground v.1.15,2013-02-24 20:38:00,
2013-02-24 15:40:00,48.3,23.2,29.95,WNW,284,12.0,12.0,37,0.00,,,0.00,Wunderground v.1.15,2013-02-24 20:40:00,
2013-02-24 15:42:00,48.3,22.5,29.95,WNW,291,8.0,15.0,36,0.00,,,0.00,Wunderground v.1.15,2013-02-24 20:42:00,
2013-02-24 15:43:00,48.3,21.9,29.95,WSW,251,6.0,15.0,35,0.00,,,0.00,Wunderground v.1.15,2013-02-24 20:43:00,
2013-02-24 15:45:00,48.2,22.5,29.95,WNW,295,9.0,15.0,36,0.00,,,0.00,Wunderground v.1.15,2013-02-24 20:45:00,
2013-02-24 15:47:00,48.2,22.5,29.95,WNW,292,10.0,16.0,36,0.00,,,0.00,Wunderground v.1.15,2013-02-24 20:47:00,
2013-02-24 15:49:00,48.1,21.7,29.95,WNW,290,6.0,16.0,35,0.00,,,0.00,Wunderground v.1.15,2013-02-24 20:49:00,
2013-02-24 15:51:00,48.0,20.9,29.95,NW,304,15.0,16.0,34,0.00,,,0.00,Wunderground v.1.15,2013-02-24 20:51:00,
2013-02-24 15:52:00,47.9,21.5,29.95,WNW,301,5.0,16.0,35,0.00,,,0.00,Wunderground v.1.15,2013-02-24 20:52:00,
2013-02-24 15:54:00,47.7,22.0,29.95,NW,322,11.0,16.0,36,0.00,,,0.00,Wunderground v.1.15,2013-02-24 20:54:00,
2013-02-24 15:55:00,47.7,22.0,29.95,WNW,300,10.0,16.0,36,0.00,,,0.00,Wunderground v.1.15,2013-02-24 20:55:00,
2013-02-24 15:56:00,47.8,22.1,29.95,WNW,297,7.0,16.0,36,0.00,,,0.00,Wunderground v.1.15,2013-02-24 20:56:00,
2013-02-24 15:57:00,47.8,22.1,29.95,North,355,9.0,16.0,36,0.00,,,0.00,Wunderground v.1.15,2013-02-24 20:57:00,
2013-02-24 16:00:00,47.8,21.4,29.95,WNW,299,7.0,16.0,35,0.00,,,0.00,Wunderground v.1.15,2013-02-24 21:00:00,
2013-02-24 16:01:00,47.9,21.5,29.95,WNW,287,6.0,10.0,35,0.00,,,0.00,Wunderground v.1.15,2013-02-24 21:01:00,
2013-02-24 16:02:00,47.9,21.5,29.95,WNW,294,10.0,14.0,35,0.00,,,0.00,Wunderground v.1.15,2013-02-24 21:02:00,
2013-02-24 16:05:00,48.0,21.6,29.95,West,259,8.0,16.0,35,0.00,,,0.00,Wunderground v.1.15,2013-02-24 21:05:00,
2013-02-24 16:06:00,48.0,20.9,29.95,WNW,302,10.0,16.0,34,0.00,,,0.00,Wunderground v.1.15,2013-02-24 21:06:00,
2013-02-24 16:08:00,47.9,20.8,29.95,WNW,298,12.0,16.0,34,0.00,,,0.00,Wunderground v.1.15,2013-02-24 21:08:00,
2013-02-24 16:10:00,47.9,20.8,29.95,WNW,294,1.0,8.0,34,0.00,,,0.00,Wunderground v.1.15,2013-02-24 21:10:00,
2013-02-24 16:11:00,47.9,21.5,29.95,West,264,3.0,9.0,35,0.00,,,0.00,Wunderground v.1.15,2013-02-24 21:11:00,
2013-02-24 16:13:00,47.9,21.5,29.95,NW,305,9.0,17.0,35,0.00,,,0.00,Wunderground v.1.15,2013-02-24 21:13:00,
2013-02-24 16:16:00,48.1,21.7,29.95,WNW,299,7.0,17.0,35,0.00,,,0.00,Wunderground v.1.15,2013-02-24 21:16:00,
2013-02-24 16:18:00,48.1,21.7,29.95,West,259,8.0,17.0,35,0.00,,,0.00,Wunderground v.1.15,2013-02-24 21:18:00,
2013-02-24 16:21:00,48.0,20.9,29.95,West,278,11.0,15.0,34,0.00,,,0.00,Wunderground v.1.15,2013-02-24 21:21:00,
2013-02-24 16:22:00,48.0,21.6,29.95,West,264,7.0,15.0,35,0.00,,,0.00,Wunderground v.1.15,2013-02-24 21:22:00,
2013-02-24 16:23:00,47.9,20.8,29.95,WNW,294,8.0,15.0,34,0.00,,,0.00,Wunderground v.1.15,2013-02-24 21:23:00,
2013-02-24 16:26:00,47.7,21.3,29.95,NW,317,6.0,15.0,35,0.00,,,0.00,Wunderground v.1.15,2013-02-24 21:26:00,
2013-02-24 16:27:00,47.7,21.3,29.95,West,279,5.0,15.0,35,0.00,,,0.00,Wunderground v.1.15,2013-02-24 21:27:00,
2013-02-24 16:29:00,47.7,21.3,29.95,WNW,302,8.0,15.0,35,0.00,,,0.00,Wunderground v.1.15,2013-02-24 21:29:00,
2013-02-24 16:31:00,47.7,21.3,29.95,NW,317,6.0,8.0,35,0.00,,,0.00,Wunderground v.1.15,2013-02-24 21:31:00,
2013-02-24 16:32:00,47.7,20.7,29.95,WNW,299,7.0,13.0,34,0.00,,,0.00,Wunderground v.1.15,2013-02-24 21:32:00,
2013-02-24 16:34:00,47.5,20.5,29.95,WNW,292,7.0,13.0,34,0.00,,,0.00,Wunderground v.1.15,2013-02-24 21:34:00,
2013-02-24 16:36:00,47.5,20.5,29.95,WNW,296,7.0,13.0,34,0.00,,,0.00,Wunderground v.1.15,2013-02-24 21:36:00,
2013-02-24 16:37:00,47.4,21.1,29.95,WNW,296,6.0,13.0,35,0.00,,,0.00,Wunderground v.1.15,2013-02-24 21:37:00,
2013-02-24 16:40:00,47.4,21.1,29.95,WSW,248,10.0,15.0,35,0.00,,,0.00,Wunderground v.1.15,2013-02-24 21:40:00,
2013-02-24 16:42:00,47.4,21.1,29.96,West,264,9.0,15.0,35,0.00,,,0.00,Wunderground v.1.15,2013-02-24 21:42:00,
2013-02-24 16:43:00,47.4,21.1,29.96,WNW,297,5.0,15.0,35,0.00,,,0.00,Wunderground v.1.15,2013-02-24 21:43:00,
2013-02-24 16:45:00,47.3,21.0,29.96,West,263,8.0,15.0,35,0.00,,,0.00,Wunderground v.1.15,2013-02-24 21:45:00,
2013-02-24 16:47:00,47.2,20.2,29.96,WNW,294,7.0,15.0,34,0.00,,,0.00,Wunderground v.1.15,2013-02-24 21:47:00,
2013-02-24 16:48:00,47.2,20.2,29.96,WNW,296,6.0,15.0,34,0.00,,,0.00,Wunderground v.1.15,2013-02-24 21:48:00,
2013-02-24 16:51:00,46.9,20.0,29.96,NNW,334,10.0,14.0,34,0.00,,,0.00,Wunderground v.1.15,2013-02-24 21:51:00,
2013-02-24 16:52:00,46.8,19.9,29.96,WNW,298,7.0,14.0,34,0.00,,,0.00,Wunderground v.1.15,2013-02-24 21:52:00,
2013-02-24 16:53:00,46.7,19.8,29.96,WNW,288,8.0,14.0,34,0.00,,,0.00,Wunderground v.1.15,2013-02-24 21:53:00,
2013-02-24 16:56:00,46.6,19.0,29.96,West,275,8.0,18.0,33,0.00,,,0.00,Wunderground v.1.15,2013-02-24 21:56:00,
2013-02-24 16:58:00,46.5,19.6,29.96,West,272,11.0,18.0,34,0.00,,,0.00,Wunderground v.1.15,2013-02-24 21:58:00,
2013-02-24 17:01:00,46.5,18.9,29.96,NW,319,12.0,14.0,33,0.00,,,0.00,Wunderground v.1.15,2013-02-24 22:01:00,
2013-02-24 17:03:00,46.5,18.2,29.97,WNW,294,5.0,15.0,32,0.00,,,0.00,Wunderground v.1.15,2013-02-24 22:03:00,
2013-02-24 17:04:00,46.4,18.1,29.96,WNW,295,8.0,15.0,32,0.00,,,0.00,Wunderground v.1.15,2013-02-24 22:04:00,
2013-02-24 17:06:00,46.3,18.0,29.97,WNW,303,5.0,15.0,32,0.00,,,0.00,Wunderground v.1.15,2013-02-24 22:06:00,
2013-02-24 17:08:00,46.3,18.7,29.97,WNW,291,3.0,15.0,33,0.00,,,0.00,Wunderground v.1.15,2013-02-24 22:08:00,
2013-02-24 17:09:00,46.3,18.7,29.97,WNW,300,9.0,15.0,33,0.00,,,0.00,Wunderground v.1.15,2013-02-24 22:09:00,
2013-02-24 17:11:00,46.1,17.8,29.97,WNW,284,11.0,13.0,32,0.00,,,0.00,Wunderground v.1.15,2013-02-24 22:11:00,
2013-02-24 17:13:00,46.1,18.6,29.97,WNW,303,10.0,17.0,33,0.00,,,0.00,Wunderground v.1.15,2013-02-24 22:13:00,
2013-02-24 17:14:00,46.1,18.6,29.97,WNW,295,8.0,17.0,33,0.00,,,0.00,Wunderground v.1.15,2013-02-24 22:14:00,
2013-02-24 17:17:00,45.9,18.4,29.97,NW,317,10.0,17.0,33,0.00,,,0.00,Wunderground v.1.15,2013-02-24 22:17:00,
2013-02-24 17:18:00,45.8,18.3,29.97,WNW,300,11.0,17.0,33,0.00,,,0.00,Wunderground v.1.15,2013-02-24 22:18:00,
2013-02-24 17:19:00,45.8,18.3,29.97,West,276,8.0,17.0,33,0.00,,,0.00,Wunderground v.1.15,2013-02-24 22:19:00,
2013-02-24 17:20:00,45.8,19.0,29.97,NW,307,5.0,9.0,34,0.00,,,0.00,Wunderground v.1.15,2013-02-24 22:20:00,
2013-02-24 17:22:00,45.7,18.9,29.97,NW,310,7.0,10.0,34,0.00,,,0.00,Wunderground v.1.15,2013-02-24 22:22:00,
2013-02-24 17:24:00,45.7,18.9,29.97,NW,310,9.0,10.0,34,0.00,,,0.00,Wunderground v.1.15,2013-02-24 22:24:00,
2013-02-24 17:25:00,45.7,18.9,29.97,WNW,294,5.0,10.0,34,0.00,,,0.00,Wunderground v.1.15,2013-02-24 22:25:00,
2013-02-24 17:28:00,45.6,18.8,29.97,WNW,287,11.0,11.0,34,0.00,,,0.00,Wunderground v.1.15,2013-02-24 22:28:00,
2013-02-24 17:29:00,45.5,18.7,29.97,West,277,11.0,13.0,34,0.00,,,0.00,Wunderground v.1.15,2013-02-24 22:29:00,
2013-02-24 17:31:00,45.5,19.4,29.97,WNW,298,4.0,9.0,35,0.00,,,0.00,Wunderground v.1.15,2013-02-24 22:31:00,
2013-02-24 17:34:00,45.3,19.2,29.97,NW,317,13.0,13.0,35,0.00,,,0.00,Wunderground v.1.15,2013-02-24 22:34:00,
2013-02-24 17:35:00,45.2,19.1,29.97,WNW,300,6.0,13.0,35,0.00,,,0.00,Wunderground v.1.15,2013-02-24 22:35:00,
2013-02-24 17:36:00,45.2,19.1,29.98,NW,312,8.0,13.0,35,0.00,,,0.00,Wunderground v.1.15,2013-02-24 22:36:00,
2013-02-24 17:40:00,45.1,19.0,29.98,WNW,300,8.0,8.0,35,0.00,,,0.00,Wunderground v.1.15,2013-02-24 22:40:00,
2013-02-24 17:41:00,45.1,19.0,29.98,West,263,6.0,11.0,35,0.00,,,0.00,Wunderground v.1.15,2013-02-24 22:41:00,
2013-02-24 17:45:00,44.9,19.5,29.98,NW,304,4.0,14.0,36,0.00,,,0.00,Wunderground v.1.15,2013-02-24 22:45:00,
2013-02-24 17:46:00,44.7,19.3,29.98,West,276,2.0,14.0,36,0.00,,,0.00,Wunderground v.1.15,2013-02-24 22:46:00,
2013-02-24 17:50:00,44.5,19.8,29.98,WNW,302,4.0,6.0,37,0.00,,,0.00,Wunderground v.1.15,2013-02-24 22:50:00,
2013-02-24 17:52:00,44.4,19.7,29.98,West,259,5.0,11.0,37,0.00,,,0.00,Wunderground v.1.15,2013-02-24 22:52:00,
2013-02-24 17:55:00,44.3,19.6,29.98,WNW,298,5.0,13.0,37,0.00,,,0.00,Wunderground v.1.15,2013-02-24 22:55:00,
2013-02-24 17:58:00,44.1,19.5,29.98,WNW,298,10.0,15.0,37,0.00,,,0.00,Wunderground v.1.15,2013-02-24 22:58:00,
2013-02-24 18:00:00,44.0,20.0,29.98,NW,304,4.0,7.0,38,0.00,,,0.00,Wunderground v.1.15,2013-02-24 23:00:00,
2013-02-24 18:01:00,44.0,20.0,29.99,WNW,284,3.0,7.0,38,0.00,,,0.00,Wunderground v.1.15,2013-02-24 23:01:00,
2013-02-24 18:03:00,43.8,19.8,29.98,NNW,348,8.0,8.0,38,0.00,,,0.00,Wunderground v.1.15,2013-02-24 23:03:00,
2013-02-24 18:05:00,43.8,19.8,29.99,NW,310,6.0,11.0,38,0.00,,,0.00,Wunderground v.1.15,2013-02-24 23:05:00,
2013-02-24 18:06:00,43.7,20.3,29.98,West,273,8.0,11.0,39,0.00,,,0.00,Wunderground v.1.15,2013-02-24 23:06:00,
2013-02-24 18:09:00,43.6,20.2,29.99,WNW,292,4.0,11.0,39,0.00,,,0.00,Wunderground v.1.15,2013-02-24 23:09:00,
2013-02-24 18:10:00,43.5,20.2,29.99,WNW,291,6.0,6.0,39,0.00,,,0.00,Wunderground v.1.15,2013-02-24 23:10:00,
2013-02-24 18:11:00,43.4,20.1,29.99,WNW,290,3.0,8.0,39,0.00,,,0.00,Wunderground v.1.15,2013-02-24 23:11:00,
2013-02-24 18:14:00,43.4,20.1,29.99,West,279,3.0,8.0,39,0.00,,,0.00,Wunderground v.1.15,2013-02-24 23:14:00,
2013-02-24 18:15:00,43.3,20.0,29.99,WNW,291,5.0,9.0,39,0.00,,,0.00,Wunderground v.1.15,2013-02-24 23:15:00,
2013-02-24 18:16:00,43.3,20.6,29.99,West,279,8.0,9.0,40,0.00,,,0.00,Wunderground v.1.15,2013-02-24 23:16:00,
2013-02-24 18:17:00,43.2,19.9,29.99,WNW,302,9.0,13.0,39,0.00,,,0.00,Wunderground v.1.15,2013-02-24 23:17:00,
2013-02-24 18:19:00,43.1,20.4,29.99,NW,306,7.0,13.0,40,0.00,,,0.00,Wunderground v.1.15,2013-02-24 23:19:00,
2013-02-24 18:21:00,43.1,20.4,29.99,WSW,252,4.0,7.0,40,0.00,,,0.00,Wunderground v.1.15,2013-02-24 23:21:00,
2013-02-24 18:22:00,43.0,20.3,29.99,West,265,3.0,7.0,40,0.00,,,0.00,Wunderground v.1.15,2013-02-24 23:22:00,
2013-02-24 18:25:00,42.9,20.8,29.99,WNW,287,5.0,9.0,41,0.00,,,0.00,Wunderground v.1.15,2013-02-24 23:25:00,
2013-02-24 18:26:00,42.8,20.7,29.99,WNW,296,6.0,15.0,41,0.00,,,0.00,Wunderground v.1.15,2013-02-24 23:26:00,
2013-02-24 18:27:00,42.8,20.7,29.99,WSW,258,7.0,15.0,41,0.00,,,0.00,Wunderground v.1.15,2013-02-24 23:27:00,
2013-02-24 18:30:00,42.7,20.6,29.99,WNW,288,9.0,9.0,41,0.00,,,0.00,Wunderground v.1.15,2013-02-24 23:30:00,
2013-02-24 18:31:00,42.7,20.6,29.99,NNW,339,13.0,13.0,41,0.00,,,0.00,Wunderground v.1.15,2013-02-24 23:31:00,
2013-02-24 18:32:00,42.7,20.6,29.99,WNW,286,10.0,13.0,41,0.00,,,0.00,Wunderground v.1.15,2013-02-24 23:32:00,
2013-02-24 18:35:00,42.6,20.5,30.00,West,267,3.0,13.0,41,0.00,,,0.00,Wunderground v.1.15,2013-02-24 23:35:00,
2013-02-24 18:36:00,42.6,20.5,30.00,WNW,292,7.0,13.0,41,0.00,,,0.00,Wunderground v.1.15,2013-02-24 23:36:00,
2013-02-24 18:37:00,42.6,20.5,30.00,WNW,295,4.0,13.0,41,0.00,,,0.00,Wunderground v.1.15,2013-02-24 23:37:00,
2013-02-24 18:40:00,42.4,20.9,30.00,West,276,7.0,10.0,42,0.00,,,0.00,Wunderground v.1.15,2013-02-24 23:40:00,
2013-02-24 18:41:00,42.4,20.9,30.00,WNW,299,6.0,10.0,42,0.00,,,0.00,Wunderground v.1.15,2013-02-24 23:41:00,
2013-02-24 18:42:00,42.4,20.9,30.00,NW,317,2.0,10.0,42,0.00,,,0.00,Wunderground v.1.15,2013-02-24 23:42:00,
2013-02-24 18:46:00,42.4,20.9,30.00,WNW,290,12.0,12.0,42,0.00,,,0.00,Wunderground v.1.15,2013-02-24 23:46:00,
2013-02-24 18:47:00,42.3,20.8,30.00,WNW,284,6.0,15.0,42,0.00,,,0.00,Wunderground v.1.15,2013-02-24 23:47:00,
2013-02-24 18:48:00,42.3,20.8,30.00,West,263,6.0,15.0,42,0.00,,,0.00,Wunderground v.1.15,2013-02-24 23:48:00,
2013-02-24 18:51:00,42.0,21.1,30.00,West,266,3.0,7.0,43,0.00,,,0.00,Wunderground v.1.15,2013-02-24 23:51:00,
2013-02-24 18:52:00,42.0,21.1,30.00,WNW,290,4.0,9.0,43,0.00,,,0.00,Wunderground v.1.15,2013-02-24 23:52:00,
2013-02-24 18:53:00,41.9,21.0,30.00,NW,310,5.0,9.0,43,0.00,,,0.00,Wunderground v.1.15,2013-02-24 23:53:00,
2013-02-24 18:56:00,41.8,20.9,30.00,WNW,295,6.0,12.0,43,0.00,,,0.00,Wunderground v.1.15,2013-02-24 23:56:00,
2013-02-24 18:57:00,41.8,20.9,30.00,WNW,302,6.0,12.0,43,0.00,,,0.00,Wunderground v.1.15,2013-02-24 23:57:00,
2013-02-24 18:58:00,41.7,21.4,30.00,WSW,253,4.0,12.0,44,0.00,,,0.00,Wunderground v.1.15,2013-02-24 23:58:00,
2013-02-24 19:02:00,41.7,21.4,30.01,West,265,6.0,11.0,44,0.00,,,0.00,Wunderground v.1.15,2013-02-25 00:02:00,
2013-02-24 19:03:00,41.8,21.5,30.01,WNW,285,10.0,12.0,44,0.00,,,0.00,Wunderground v.1.15,2013-02-25 00:03:00,
2013-02-24 19:07:00,41.8,21.5,30.01,WNW,296,6.0,12.0,44,0.00,,,0.00,Wunderground v.1.15,2013-02-25 00:07:00,
2013-02-24 19:08:00,41.8,21.5,30.01,WNW,298,4.0,12.0,44,0.00,,,0.00,Wunderground v.1.15,2013-02-25 00:08:00,
2013-02-24 19:09:00,41.8,21.5,30.01,WNW,297,6.0,12.0,44,0.00,,,0.00,Wunderground v.1.15,2013-02-25 00:09:00,
2013-02-24 19:12:00,41.6,21.3,30.01,WNW,292,3.0,7.0,44,0.00,,,0.00,Wunderground v.1.15,2013-02-25 00:12:00,
2013-02-24 19:14:00,41.5,21.7,30.01,WNW,300,5.0,7.0,45,0.00,,,0.00,Wunderground v.1.15,2013-02-25 00:14:00,
2013-02-24 19:17:00,41.4,21.6,30.01,WNW,292,2.0,7.0,45,0.00,,,0.00,Wunderground v.1.15,2013-02-25 00:17:00,
2013-02-24 19:18:00,41.4,21.6,30.01,WNW,288,10.0,12.0,45,0.00,,,0.00,Wunderground v.1.15,2013-02-25 00:18:00,
2013-02-24 19:19:00,41.3,21.5,30.01,WNW,296,4.0,12.0,45,0.00,,,0.00,Wunderground v.1.15,2013-02-25 00:19:00,
2013-02-24 19:20:00,41.3,21.5,30.01,WNW,300,2.0,4.0,45,0.00,,,0.00,Wunderground v.1.15,2013-02-25 00:20:00,
2013-02-24 19:22:00,41.2,21.4,30.01,WNW,288,5.0,8.0,45,0.00,,,0.00,Wunderground v.1.15,2013-02-25 00:22:00,
2013-02-24 19:23:00,41.1,21.3,30.01,WNW,288,3.0,8.0,45,0.00,,,0.00,Wunderground v.1.15,2013-02-25 00:23:00,
2013-02-24 19:25:00,41.1,21.3,30.02,WNW,282,2.0,8.0,45,0.00,,,0.00,Wunderground v.1.15,2013-02-25 00:25:00,
2013-02-24 19:27:00,41.0,21.8,30.01,WNW,289,3.0,8.0,46,0.00,,,0.00,Wunderground v.1.15,2013-02-25 00:27:00,
2013-02-24 19:28:00,40.9,21.7,30.01,WNW,292,6.0,8.0,46,0.00,,,0.00,Wunderground v.1.15,2013-02-25 00:28:00,
2013-02-24 19:30:00,40.9,21.7,30.01,WNW,284,4.0,5.0,46,0.00,,,0.00,Wunderground v.1.15,2013-02-25 00:30:00,
2013-02-24 19:33:00,40.7,21.5,30.02,West,271,3.0,5.0,46,0.00,,,0.00,Wunderground v.1.15,2013-02-25 00:33:00,
2013-02-24 19:34:00,40.7,21.5,30.02,WNW,291,5.0,5.0,46,0.00,,,0.00,Wunderground v.1.15,2013-02-25 00:34:00,
2013-02-24 19:35:00,40.6,21.4,30.02,WSW,254,4.0,7.0,46,0.00,,,0.00,Wunderground v.1.15,2013-02-25 00:35:00,
2013-02-24 19:36:00,40.6,21.4,30.02,NW,314,4.0,7.0,46,0.00,,,0.00,Wunderground v.1.15,2013-02-25 00:36:00,
2013-02-24 19:38:00,40.5,21.3,30.02,West,274,4.0,7.0,46,0.00,,,0.00,Wunderground v.1.15,2013-02-25 00:38:00,
2013-02-24 19:39:00,40.5,21.3,30.02,West,275,4.0,8.0,46,0.00,,,0.00,Wunderground v.1.15,2013-02-25 00:39:00,
2013-02-24 19:40:00,40.4,21.2,30.02,West,281,3.0,4.0,46,0.00,,,0.00,Wunderground v.1.15,2013-02-25 00:40:00,
2013-02-24 19:41:00,40.4,21.7,30.02,West,281,4.0,7.0,47,0.00,,,0.00,Wunderground v.1.15,2013-02-25 00:41:00,
2013-02-24 19:43:00,40.4,21.7,30.02,West,259,4.0,7.0,47,0.00,,,0.00,Wunderground v.1.15,2013-02-25 00:43:00,
2013-02-24 19:44:00,40.3,21.6,30.02,WNW,292,3.0,7.0,47,0.00,,,0.00,Wunderground v.1.15,2013-02-25 00:44:00,
2013-02-24 19:46:00,40.3,21.6,30.02,West,263,6.0,7.0,47,0.00,,,0.00,Wunderground v.1.15,2013-02-25 00:46:00,
2013-02-24 19:47:00,40.2,21.6,30.02,WNW,292,4.0,7.0,47,0.00,,,0.00,Wunderground v.1.15,2013-02-25 00:47:00,
2013-02-24 19:48:00,40.1,21.5,30.02,WNW,286,5.0,9.0,47,0.00,,,0.00,Wunderground v.1.15,2013-02-25 00:48:00,
2013-02-24 19:49:00,40.1,21.5,30.02,West,267,4.0,9.0,47,0.00,,,0.00,Wunderground v.1.15,2013-02-25 00:49:00,
2013-02-24 19:51:00,40.1,21.5,30.02,WNW,290,3.0,8.0,47,0.00,,,0.00,Wunderground v.1.15,2013-02-25 00:51:00,
2013-02-24 19:52:00,40.0,21.4,30.02,West,271,7.0,8.0,47,0.00,,,0.00,Wunderground v.1.15,2013-02-25 00:52:00,
2013-02-24 19:53:00,40.0,21.4,30.02,West,281,4.0,8.0,47,0.00,,,0.00,Wunderground v.1.15,2013-02-25 00:53:00,
2013-02-24 19:55:00,40.0,21.4,30.02,WNW,296,3.0,10.0,47,0.00,,,0.00,Wunderground v.1.15,2013-02-25 00:55:00,
2013-02-24 19:56:00,40.0,21.4,30.02,WNW,290,4.0,10.0,47,0.00,,,0.00,Wunderground v.1.15,2013-02-25 00:56:00,
2013-02-24 19:58:00,40.0,21.4,30.02,West,279,3.0,10.0,47,0.00,,,0.00,Wunderground v.1.15,2013-02-25 00:58:00,
2013-02-24 20:00:00,39.9,21.3,30.02,West,268,3.0,5.0,47,0.00,,,0.00,Wunderground v.1.15,2013-02-25 01:00:00,
2013-02-24 20:01:00,39.9,21.3,30.02,West,276,3.0,5.0,47,0.00,,,0.00,Wunderground v.1.15,2013-02-25 01:01:00,
2013-02-24 20:03:00,39.9,21.3,30.03,WNW,294,3.0,5.0,47,0.00,,,0.00,Wunderground v.1.15,2013-02-25 01:03:00,
2013-02-24 20:04:00,39.9,21.3,30.03,West,271,4.0,5.0,47,0.00,,,0.00,Wunderground v.1.15,2013-02-25 01:04:00,
2013-02-24 20:06:00,39.8,21.2,30.03,West,263,3.0,6.0,47,0.00,,,0.00,Wunderground v.1.15,2013-02-25 01:06:00,
2013-02-24 20:07:00,39.8,21.2,30.03,WNW,285,2.0,6.0,47,0.00,,,0.00,Wunderground v.1.15,2013-02-25 01:07:00,
2013-02-24 20:08:00,39.7,21.6,30.03,WSW,258,3.0,6.0,48,0.00,,,0.00,Wunderground v.1.15,2013-02-25 01:08:00,
2013-02-24 20:09:00,39.7,21.6,30.03,West,265,3.0,6.0,48,0.00,,,0.00,Wunderground v.1.15,2013-02-25 01:09:00,
2013-02-24 20:11:00,39.6,21.5,30.03,West,273,3.0,4.0,48,0.00,,,0.00,Wunderground v.1.15,2013-02-25 01:11:00,
2013-02-24 20:12:00,39.6,21.0,30.03,West,277,2.0,4.0,47,0.00,,,0.00,Wunderground v.1.15,2013-02-25 01:12:00,
2013-02-24 20:14:00,39.5,20.9,30.03,West,274,3.0,5.0,47,0.00,,,0.00,Wunderground v.1.15,2013-02-25 01:14:00,
2013-02-24 20:15:00,39.5,21.4,30.03,West,273,4.0,5.0,48,0.00,,,0.00,Wunderground v.1.15,2013-02-25 01:15:00,
2013-02-24 20:16:00,39.5,21.4,30.03,West,273,4.0,7.0,48,0.00,,,0.00,Wunderground v.1.15,2013-02-25 01:16:00,
2013-02-24 20:18:00,39.5,21.4,30.03,WNW,296,5.0,7.0,48,0.00,,,0.00,Wunderground v.1.15,2013-02-25 01:18:00,
2013-02-24 20:19:00,39.5,21.4,30.03,WNW,285,4.0,7.0,48,0.00,,,0.00,Wunderground v.1.15,2013-02-25 01:19:00,
2013-02-24 20:20:00,39.5,21.4,30.03,West,279,5.0,5.0,48,0.00,,,0.00,Wunderground v.1.15,2013-02-25 01:20:00,
2013-02-24 20:21:00,39.5,20.9,30.03,West,278,4.0,5.0,47,0.00,,,0.00,Wunderground v.1.15,2013-02-25 01:21:00,
2013-02-24 20:24:00,39.5,20.9,30.03,West,265,6.0,9.0,47,0.00,,,0.00,Wunderground v.1.15,2013-02-25 01:24:00,
2013-02-24 20:26:00,39.4,21.3,30.03,WNW,288,9.0,10.0,48,0.00,,,0.00,Wunderground v.1.15,2013-02-25 01:26:00,
2013-02-24 20:29:00,39.4,20.8,30.03,WNW,293,4.0,10.0,47,0.00,,,0.00,Wunderground v.1.15,2013-02-25 01:29:00,
2013-02-24 20:31:00,39.3,20.7,30.03,NW,321,3.0,9.0,47,0.00,,,0.00,Wunderground v.1.15,2013-02-25 01:31:00,
2013-02-24 20:32:00,39.3,20.7,30.03,WNW,298,4.0,9.0,47,0.00,,,0.00,Wunderground v.1.15,2013-02-25 01:32:00,
2013-02-24 20:34:00,39.2,20.6,30.03,NW,315,6.0,12.0,47,0.00,,,0.00,Wunderground v.1.15,2013-02-25 01:34:00,
2013-02-24 20:35:00,39.2,20.6,30.03,West,280,4.0,12.0,47,0.00,,,0.00,Wunderground v.1.15,2013-02-25 01:35:00,
2013-02-24 20:37:00,39.2,20.6,30.03,WNW,298,9.0,12.0,47,0.00,,,0.00,Wunderground v.1.15,2013-02-25 01:37:00,
2013-02-24 20:40:00,39.1,21.0,30.03,NW,305,10.0,10.0,48,0.00,,,0.00,Wunderground v.1.15,2013-02-25 01:40:00,
2013-02-24 20:41:00,39.1,21.0,30.03,NW,314,6.0,13.0,48,0.00,,,0.00,Wunderground v.1.15,2013-02-25 01:41:00,
2013-02-24 20:42:00,39.1,21.0,30.03,West,281,9.0,13.0,48,0.00,,,0.00,Wunderground v.1.15,2013-02-25 01:42:00,
2013-02-24 20:45:00,39.0,20.5,30.03,NNW,330,6.0,13.0,47,0.00,,,0.00,Wunderground v.1.15,2013-02-25 01:45:00,
2013-02-24 20:46:00,39.1,20.5,30.03,WNW,294,5.0,13.0,47,0.00,,,0.00,Wunderground v.1.15,2013-02-25 01:46:00,
2013-02-24 20:47:00,39.2,20.6,30.04,NNW,343,10.0,13.0,47,0.00,,,0.00,Wunderground v.1.15,2013-02-25 01:47:00,
2013-02-24 20:50:00,39.2,20.6,30.04,WNW,294,8.0,12.0,47,0.00,,,0.00,Wunderground v.1.15,2013-02-25 01:50:00,
2013-02-24 20:51:00,39.2,20.6,30.04,WNW,291,5.0,12.0,47,0.00,,,0.00,Wunderground v.1.15,2013-02-25 01:51:00,
2013-02-24 20:52:00,39.2,20.6,30.04,NW,304,3.0,12.0,47,0.00,,,0.00,Wunderground v.1.15,2013-02-25 01:52:00,
2013-02-24 20:53:00,39.1,20.5,30.04,WNW,283,2.0,12.0,47,0.00,,,0.00,Wunderground v.1.15,2013-02-25 01:53:00,
2013-02-24 20:55:00,39.1,20.5,30.04,WNW,300,4.0,12.0,47,0.00,,,0.00,Wunderground v.1.15,2013-02-25 01:55:00,
2013-02-24 20:57:00,39.0,20.5,30.04,West,261,7.0,12.0,47,0.00,,,0.00,Wunderground v.1.15,2013-02-25 01:57:00,
2013-02-24 20:58:00,39.0,20.5,30.04,WNW,297,4.0,12.0,47,0.00,,,0.00,Wunderground v.1.15,2013-02-25 01:58:00,
2013-02-24 21:01:00,39.0,20.5,30.04,West,271,6.0,6.0,47,0.00,,,0.00,Wunderground v.1.15,2013-02-25 02:01:00,
2013-02-24 21:02:00,38.9,20.4,30.04,WNW,288,4.0,10.0,47,0.00,,,0.00,Wunderground v.1.15,2013-02-25 02:02:00,
2013-02-24 21:03:00,38.9,20.4,30.04,WSW,257,3.0,10.0,47,0.00,,,0.00,Wunderground v.1.15,2013-02-25 02:03:00,
2013-02-24 21:06:00,38.8,20.8,30.04,WNW,282,2.0,10.0,48,0.00,,,0.00,Wunderground v.1.15,2013-02-25 02:06:00,
2013-02-24 21:08:00,38.8,20.8,30.04,West,271,7.0,10.0,48,0.00,,,0.00,Wunderground v.1.15,2013-02-25 02:08:00,
2013-02-24 21:12:00,38.7,20.7,30.04,West,269,4.0,8.0,48,0.00,,,0.00,Wunderground v.1.15,2013-02-25 02:12:00,
2013-02-24 21:13:00,38.6,20.6,30.04,West,280,6.0,8.0,48,0.00,,,0.00,Wunderground v.1.15,2013-02-25 02:13:00,
2013-02-24 21:14:00,38.6,20.6,30.04,West,269,4.0,8.0,48,0.00,,,0.00,Wunderground v.1.15,2013-02-25 02:14:00,
2013-02-24 21:17:00,38.6,20.6,30.04,WSW,252,3.0,9.0,48,0.00,,,0.00,Wunderground v.1.15,2013-02-25 02:17:00,
2013-02-24 21:18:00,38.6,20.6,30.04,WNW,294,7.0,9.0,48,0.00,,,0.00,Wunderground v.1.15,2013-02-25 02:18:00,
2013-02-24 21:19:00,38.5,20.5,30.04,WNW,291,4.0,9.0,48,0.00,,,0.00,Wunderground v.1.15,2013-02-25 02:19:00,
2013-02-24 21:22:00,38.3,20.3,30.04,West,265,4.0,9.0,48,0.00,,,0.00,Wunderground v.1.15,2013-02-25 02:22:00,
2013-02-24 21:23:00,38.3,20.3,30.04,West,277,5.0,9.0,48,0.00,,,0.00,Wunderground v.1.15,2013-02-25 02:23:00,
2013-02-24 21:25:00,38.2,20.2,30.04,WNW,298,5.0,9.0,48,0.00,,,0.00,Wunderground v.1.15,2013-02-25 02:25:00,
2013-02-24 21:27:00,38.2,20.7,30.04,WNW,303,7.0,9.0,49,0.00,,,0.00,Wunderground v.1.15,2013-02-25 02:27:00,
2013-02-24 21:28:00,38.2,20.7,30.04,WNW,303,6.0,9.0,49,0.00,,,0.00,Wunderground v.1.15,2013-02-25 02:28:00,
2013-02-24 21:30:00,38.1,20.6,30.04,WSW,257,9.0,13.0,49,0.00,,,0.00,Wunderground v.1.15,2013-02-25 02:30:00,
2013-02-24 21:32:00,38.0,20.5,30.05,WNW,292,5.0,13.0,49,0.00,,,0.00,Wunderground v.1.15,2013-02-25 02:32:00,
2013-02-24 21:33:00,38.0,20.5,30.04,NW,323,6.0,13.0,49,0.00,,,0.00,Wunderground v.1.15,2013-02-25 02:33:00,
2013-02-24 21:34:00,38.0,20.5,30.04,WNW,295,9.0,13.0,49,0.00,,,0.00,Wunderground v.1.15,2013-02-25 02:34:00,
2013-02-24 21:35:00,38.0,20.5,30.04,North,355,5.0,13.0,49,0.00,,,0.00,Wunderground v.1.15,2013-02-25 02:35:00,
2013-02-24 21:38:00,37.8,20.3,30.04,NW,323,5.0,13.0,49,0.00,,,0.00,Wunderground v.1.15,2013-02-25 02:38:00,
2013-02-24 21:39:00,37.8,20.3,30.04,West,271,5.0,13.0,49,0.00,,,0.00,Wunderground v.1.15,2013-02-25 02:39:00,
2013-02-24 21:41:00,37.8,20.3,30.04,WNW,297,4.0,14.0,49,0.00,,,0.00,Wunderground v.1.15,2013-02-25 02:41:00,
2013-02-24 21:43:00,37.7,20.2,30.04,WNW,287,5.0,14.0,49,0.00,,,0.00,Wunderground v.1.15,2013-02-25 02:43:00,
2013-02-24 21:44:00,37.7,20.2,30.04,NNW,334,4.0,14.0,49,0.00,,,0.00,Wunderground v.1.15,2013-02-25 02:44:00,
2013-02-24 21:46:00,37.5,20.5,30.04,NW,306,5.0,14.0,50,0.00,,,0.00,Wunderground v.1.15,2013-02-25 02:46:00,
2013-02-24 21:48:00,37.4,20.4,30.04,WNW,298,8.0,14.0,50,0.00,,,0.00,Wunderground v.1.15,2013-02-25 02:48:00,
2013-02-24 21:49:00,37.4,20.4,30.04,NW,308,10.0,14.0,50,0.00,,,0.00,Wunderground v.1.15,2013-02-25 02:49:00,
2013-02-24 21:51:00,37.3,20.3,30.04,West,279,8.0,12.0,50,0.00,,,0.00,Wunderground v.1.15,2013-02-25 02:51:00,
2013-02-24 21:54:00,37.3,20.3,30.04,West,261,8.0,12.0,50,0.00,,,0.00,Wunderground v.1.15,2013-02-25 02:54:00,
2013-02-24 21:56:00,37.3,20.3,30.04,WNW,300,10.0,12.0,50,0.00,,,0.00,Wunderground v.1.15,2013-02-25 02:56:00,
2013-02-24 21:59:00,37.2,20.2,30.04,NW,311,5.0,12.0,50,0.00,,,0.00,Wunderground v.1.15,2013-02-25 02:59:00,
2013-02-24 22:01:00,37.1,20.2,30.04,WNW,294,5.0,11.0,50,0.00,,,0.00,Wunderground v.1.15,2013-02-25 03:01:00,
2013-02-24 22:05:00,37.1,20.2,30.05,NW,320,3.0,11.0,50,0.00,,,0.00,Wunderground v.1.15,2013-02-25 03:05:00,
2013-02-24 22:06:00,37.0,20.5,30.04,NW,304,4.0,11.0,51,0.00,,,0.00,Wunderground v.1.15,2013-02-25 03:06:00,
2013-02-24 22:10:00,36.9,20.0,30.04,WNW,287,5.0,11.0,50,0.00,,,0.00,Wunderground v.1.15,2013-02-25 03:10:00,
2013-02-24 22:11:00,36.9,20.4,30.05,NW,319,4.0,7.0,51,0.00,,,0.00,Wunderground v.1.15,2013-02-25 03:11:00,
2013-02-24 22:15:00,36.9,20.4,30.05,WNW,300,8.0,11.0,51,0.00,,,0.00,Wunderground v.1.15,2013-02-25 03:15:00,
2013-02-24 22:17:00,37.0,20.1,30.05,WNW,302,8.0,11.0,50,0.00,,,0.00,Wunderground v.1.15,2013-02-25 03:17:00,
2013-02-24 22:20:00,37.0,20.1,30.05,WNW,294,8.0,8.0,50,0.00,,,0.00,Wunderground v.1.15,2013-02-25 03:20:00,
2013-02-24 22:21:00,37.0,20.1,30.05,North,9,8.0,11.0,50,0.00,,,0.00,Wunderground v.1.15,2013-02-25 03:21:00,
2013-02-24 22:22:00,37.0,20.1,30.05,WNW,291,8.0,11.0,50,0.00,,,0.00,Wunderground v.1.15,2013-02-25 03:22:00,
2013-02-24 22:25:00,37.0,20.1,30.04,NNW,344,11.0,12.0,50,0.00,,,0.00,Wunderground v.1.15,2013-02-25 03:25:00,
2013-02-24 22:26:00,37.0,20.1,30.04,NW,305,11.0,12.0,50,0.00,,,0.00,Wunderground v.1.15,2013-02-25 03:26:00,
2013-02-24 22:27:00,37.0,20.1,30.04,WNW,296,10.0,13.0,50,0.00,,,0.00,Wunderground v.1.15,2013-02-25 03:27:00,
2013-02-24 22:30:00,37.0,20.5,30.04,NW,305,6.0,8.0,51,0.00,,,0.00,Wunderground v.1.15,2013-02-25 03:30:00,
2013-02-24 22:31:00,37.0,20.5,30.04,WNW,296,6.0,8.0,51,0.00,,,0.00,Wunderground v.1.15,2013-02-25 03:31:00,
2013-02-24 22:33:00,36.9,20.4,30.04,NW,313,6.0,10.0,51,0.00,,,0.00,Wunderground v.1.15,2013-02-25 03:33:00,
2013-02-24 22:36:00,36.7,20.3,30.04,West,275,9.0,10.0,51,0.00,,,0.00,Wunderground v.1.15,2013-02-25 03:36:00,
2013-02-24 22:38:00,36.5,20.1,30.04,WNW,300,7.0,11.0,51,0.00,,,0.00,Wunderground v.1.15,2013-02-25 03:38:00,
2013-02-24 22:41:00,36.4,20.4,30.04,West,281,5.0,7.0,52,0.00,,,0.00,Wunderground v.1.15,2013-02-25 03:41:00,
2013-02-24 22:42:00,36.4,20.4,30.04,WNW,294,7.0,8.0,52,0.00,,,0.00,Wunderground v.1.15,2013-02-25 03:42:00,
2013-02-24 22:43:00,36.4,20.4,30.04,NW,325,2.0,9.0,52,0.00,,,0.00,Wunderground v.1.15,2013-02-25 03:43:00,
2013-02-24 22:46:00,36.3,20.3,30.05,NW,305,7.0,9.0,52,0.00,,,0.00,Wunderground v.1.15,2013-02-25 03:46:00,
2013-02-24 22:47:00,36.3,20.3,30.05,WNW,301,5.0,9.0,52,0.00,,,0.00,Wunderground v.1.15,2013-02-25 03:47:00,
2013-02-24 22:49:00,36.3,20.3,30.05,WNW,282,6.0,9.0,52,0.00,,,0.00,Wunderground v.1.15,2013-02-25 03:49:00,
2013-02-24 22:51:00,36.2,20.2,30.05,WNW,296,6.0,9.0,52,0.00,,,0.00,Wunderground v.1.15,2013-02-25 03:51:00,
2013-02-24 22:52:00,36.1,20.2,30.04,NW,310,5.0,9.0,52,0.00,,,0.00,Wunderground v.1.15,2013-02-25 03:52:00,
2013-02-24 22:54:00,36.1,20.2,30.04,NNW,344,3.0,9.0,52,0.00,,,0.00,Wunderground v.1.15,2013-02-25 03:54:00,
2013-02-24 22:56:00,36.0,20.5,30.04,NW,314,2.0,9.0,53,0.00,,,0.00,Wunderground v.1.15,2013-02-25 03:56:00,
2013-02-24 22:57:00,35.9,20.4,30.04,WNW,296,7.0,9.0,53,0.00,,,0.00,Wunderground v.1.15,2013-02-25 03:57:00,
2013-02-24 22:59:00,35.8,20.3,30.04,WNW,302,10.0,10.0,53,0.00,,,0.00,Wunderground v.1.15,2013-02-25 03:59:00,
2013-02-24 23:02:00,35.8,20.3,30.04,NW,310,8.0,8.0,53,0.00,,,0.00,Wunderground v.1.15,2013-02-25 04:02:00,
2013-02-24 23:03:00,35.7,20.2,30.04,NNW,327,5.0,9.0,53,0.00,,,0.00,Wunderground v.1.15,2013-02-25 04:03:00,
2013-02-24 23:05:00,35.6,20.6,30.04,WNW,290,4.0,13.0,54,0.00,,,0.00,Wunderground v.1.15,2013-02-25 04:05:00,
2013-02-24 23:07:00,35.6,20.6,30.03,North,350,4.0,13.0,54,0.00,,,0.00,Wunderground v.1.15,2013-02-25 04:07:00,
2013-02-24 23:09:00,35.4,20.4,30.03,WNW,292,7.0,13.0,54,0.00,,,0.00,Wunderground v.1.15,2013-02-25 04:09:00,
2013-02-24 23:10:00,35.4,20.4,30.03,WNW,293,4.0,7.0,54,0.00,,,0.00,Wunderground v.1.15,2013-02-25 04:10:00,
2013-02-24 23:12:00,35.4,20.4,30.03,WNW,294,8.0,8.0,54,0.00,,,0.00,Wunderground v.1.15,2013-02-25 04:12:00,
2013-02-24 23:13:00,35.4,20.4,30.03,NW,314,9.0,13.0,54,0.00,,,0.00,Wunderground v.1.15,2013-02-25 04:13:00,
2013-02-24 23:14:00,35.3,20.3,30.03,NW,312,5.0,13.0,54,0.00,,,0.00,Wunderground v.1.15,2013-02-25 04:14:00,
2013-02-24 23:16:00,35.4,20.4,30.03,NW,312,7.0,13.0,54,0.00,,,0.00,Wunderground v.1.15,2013-02-25 04:16:00,
2013-02-24 23:17:00,35.3,20.3,30.03,NW,314,7.0,13.0,54,0.00,,,0.00,Wunderground v.1.15,2013-02-25 04:17:00,
2013-02-24 23:18:00,35.3,20.3,30.03,NNW,344,6.0,13.0,54,0.00,,,0.00,Wunderground v.1.15,2013-02-25 04:18:00,
2013-02-24 23:21:00,35.3,20.3,30.04,WNW,287,6.0,10.0,54,0.00,,,0.00,Wunderground v.1.15,2013-02-25 04:21:00,
2013-02-24 23:22:00,35.3,20.3,30.04,WNW,289,5.0,10.0,54,0.00,,,0.00,Wunderground v.1.15,2013-02-25 04:22:00,
2013-02-24 23:23:00,35.3,20.3,30.04,NNW,327,6.0,10.0,54,0.00,,,0.00,Wunderground v.1.15,2013-02-25 04:23:00,
2013-02-24 23:26:00,35.3,20.3,30.04,NW,324,5.0,11.0,54,0.00,,,0.00,Wunderground v.1.15,2013-02-25 04:26:00,
2013-02-24 23:27:00,35.3,20.3,30.04,NNW,348,5.0,11.0,54,0.00,,,0.00,Wunderground v.1.15,2013-02-25 04:27:00,
2013-02-24 23:28:00,35.3,20.3,30.04,NW,313,6.0,11.0,54,0.00,,,0.00,Wunderground v.1.15,2013-02-25 04:28:00,
2013-02-24 23:32:00,35.2,20.6,30.04,WNW,303,4.0,8.0,55,0.00,,,0.00,Wunderground v.1.15,2013-02-25 04:32:00,
2013-02-24 23:33:00,35.2,20.6,30.04,NW,320,4.0,8.0,55,0.00,,,0.00,Wunderground v.1.15,2013-02-25 04:33:00,
2013-02-24 23:37:00,34.9,20.4,30.03,NW,321,5.0,8.0,55,0.00,,,0.00,Wunderground v.1.15,2013-02-25 04:37:00,
2013-02-24 23:38:00,34.8,20.3,30.04,NW,320,6.0,8.0,55,0.00,,,0.00,Wunderground v.1.15,2013-02-25 04:38:00,
2013-02-24 23:43:00,34.5,20.4,30.04,WNW,297,3.0,8.0,56,0.00,,,0.00,Wunderground v.1.15,2013-02-25 04:43:00,
2013-02-24 23:46:00,34.4,20.3,30.04,NW,311,3.0,8.0,56,0.00,,,0.00,Wunderground v.1.15,2013-02-25 04:46:00,
2013-02-24 23:49:00,34.4,20.7,30.04,NW,316,2.0,8.0,57,0.00,,,0.00,Wunderground v.1.15,2013-02-25 04:49:00,
2013-02-24 23:51:00,34.4,20.7,30.04,NW,313,2.0,4.0,57,0.00,,,0.00,Wunderground v.1.15,2013-02-25 04:51:00,
2013-02-24 23:54:00,34.3,20.6,30.04,NW,319,1.0,5.0,57,0.00,,,0.00,Wunderground v.1.15,2013-02-25 04:54:00,
2013-02-24 23:56:00,34.2,20.5,30.04,NE,42,1.0,5.0,57,0.00,,,0.00,Wunderground v.1.15,2013-02-25 04:56:00,
2013-02-24 23:59:00,34.1,20.4,30.04,WNW,284,1.0,5.0,57,0.00,,,0.00,Wunderground v.1.15,2013-02-25 04:59:00,